Center Banner
 

Hyner View Trail Challenge

Overall Finish List

April 21, 2018



Hyner 50K

Hyner 25K

Place Name City Bib No Age Gender Age Group Total Time Pace
1 ZACH MILLER MANITOU SPRINGS CO 1083 29 M 1 20-29 2:06:17.91 7:36/M
2 MATT LIPSEY KERSEY PA 814 28 M 2 20-29 2:12:57.36 8:01/M
3 ERIC MARSHALL STATE COLLEGE PA 828 34 M 1 30-39 2:16:07.33 8:12/M
4 BEN ROBINSON LEHMAN PA 935 24 M 3 20-29 2:18:31.13 8:21/M
5 DEREK WAUGHEN MUNCY PA 1042 30 M 2 30-39 2:30:26.96 9:04/M
6 CLAYTON BOUCHARD LYKENS PA 587 44 M 1 40-49 2:30:41.68 9:05/M
7 AARON STREDNY SHAVERTOWN PA 1006 37 M 3 30-39 2:31:00.71 9:06/M
8 DERRICK MILLER FREDERICKSBURG OH 849 35 M 4 30-39 2:34:20.73 9:18/M
9 BROCK WAUGHEN MIFFLINBURG PA 1041 27 M 4 20-29 2:35:08.15 9:21/M
10 SAMUEL HIBBS HATBORO PA 742 23 M 5 20-29 2:35:34.92 9:22/M
11 JOSHUS ELY JERSEY SHORE PA 663 33 M 5 30-39 2:39:45.64 9:37/M
12 PORT HABALAR WILLIAMSPORT PA 720 16 M 1 1-19 2:41:29.31 9:44/M
13 LEE STRAPPELLO MARTINSBURG PA 1005 35 M 6 30-39 2:41:34.99 9:44/M
14 MIKE HASTINGS LOCK HAVEN PA 728 33 M 7 30-39 2:41:53.87 9:45/M
15 TIM HERB WHITEHALL PA 739 45 M 2 40-49 2:42:10.36 9:46/M
16 MICHAEL REAGER LEBANON PA 922 40 M 3 40-49 2:46:01.83 10:00/M
17 DEVANG PATEL NORTH BERGEN NJ 895 29 M 6 20-29 2:46:20.64 10:01/M
18 JUSTIN BEATTY SOUTH WILLIAMSPORT PA 567 39 M 8 30-39 2:47:20.71 10:05/M
19 TODD ROWLEY HUNTINGTON NY 940 48 M 4 40-49 2:47:39.25 10:06/M
20 CAROLE DUDUKOVICH PORT MATILDA PA 125 51 F 1 50-59 2:50:19.44 10:16/M
21 MEIRA MINARD STATE COLLEGE PA 333 44 F 1 40-49 2:50:35.61 10:17/M
22 ROBERT PHILLIPS BELLEFONTE PA 904 32 M 9 30-39 2:50:51.23 10:18/M
23 MARK FISHER MIFFLIN PA 685 31 M 10 30-39 2:51:05.38 10:18/M
24 EMANUEL KING MILL HALL PA 778 20 M 7 20-29 2:51:33.97 10:20/M
25 ALLEN KING MILL HALL PA 774 29 M 8 20-29 2:53:00.31 10:25/M
26 STEVEN STOLTZFUS BIRD-IN-HAND PA 1081 35 M 11 30-39 2:53:35.72 10:27/M
27 JOSH ROBERTS ELVERSON PA 934 40 M 5 40-49 2:53:36.92 10:27/M
28 DREW FUNK STATE COLLEGE PA 1087 32 M 12 30-39 2:54:28.15 10:31/M
29 NATHAN SNAVELY ZION GROVE PA 979 40 M 6 40-49 2:56:02.89 10:36/M
30 MIKE HABALAR WILLIAMSPORT PA 719 44 M 7 40-49 2:56:04.73 10:36/M
31 SHAMUS NUGENT POCONO LAKE PA 1068 35 M 13 30-39 2:56:23.67 10:38/M
32 ZACH LONSINGER TYRONE PA 820 27 M 9 20-29 2:56:31.30 10:38/M
33 JOHANNA OHM STATE COLLEGE PA 369 26 F 1 20-29 2:56:51.75 10:39/M
34 DAVE ENDRESS BELLWOOD PA 664 44 M 8 40-49 2:57:14.99 10:41/M
35 JASON MAZZULLO WILLIAMSPORT PA 835 40 M 9 40-49 3:01:35.21 10:56/M
36 JAKE CLEMENTS STATE COLLEGE PA 613 38 M 14 30-39 3:01:52.96 10:57/M
37 JEFF SORG VILLANOVA PA 986 41 M 10 40-49 3:02:31.14 11:00/M
38 CHRISTOPHER ESH LITITZ PA 667 47 M 11 40-49 3:02:33.19 11:00/M
39 STEVE TEMPLIN MUNCY PA 1019 45 M 12 40-49 3:02:49.68 11:01/M
40 HEATHER WILLIAMS CENTERPORT NY 540 42 F 2 40-49 3:02:56.62 11:01/M
41 TOBY MILLER MILLERSBURG OH 856 40 M 13 40-49 3:03:16.69 11:02/M
42 RYAN MOON WILLIAMSPORT PA 865 34 M 15 30-39 3:03:54.44 11:05/M
43 TROY MILLER JULIAN PA 857 48 M 14 40-49 3:04:07.83 11:05/M
44 SCOTT FALKNER BELLEVILLE PA 671 47 M 15 40-49 3:04:09.68 11:06/M
45 BEN STOLTZFUS MILL HALL PA 998 23 M 10 20-29 3:04:29.89 11:07/M
46 JEREMY JOHNSON MILL HALL PA 755 32 M 16 30-39 3:04:57.39 11:08/M
47 JONATHON BAILLIE ALLISON PARK PA 559 36 M 17 30-39 3:05:15.97 11:10/M
48 ZACHARY D'AURORA WEEDVILLE PA 639 25 M 11 20-29 3:05:49.17 11:12/M
49 ANDREW BOGUS CENTRE HALL PA 583 28 M 12 20-29 3:06:18.87 11:13/M
50 CHRIS KING MILL HALL PA 776 18 M 2 1-19 3:07:03.21 11:16/M
51 TROY WESTER WILDWOOD MO 1050 45 M 16 40-49 3:08:01.87 11:20/M
52 JULIE PENTICO WILLIAMSPORT PA 378 50 F 2 50-59 3:08:27.90 11:21/M
53 TIM SPIGELMYER MCCLURE PA 989 53 M 1 50-59 3:08:31.90 11:21/M
54 MATTHEW SPRINGER FALLS CHURCH VA 991 44 M 17 40-49 3:08:33.21 11:22/M
55 BROCK RIDER STATE COLLEGE PA 927 39 M 18 30-39 3:08:40.76 11:22/M
56 JERRY BLASKO DANVILLE PA 579 46 M 18 40-49 3:09:20.86 11:24/M
57 NORB BAIER PORT MATILDA PA 1097 31 M 19 30-39 3:09:29.23 11:25/M
58 A.T. STAMP LANCASTER PA 992 43 M 19 40-49 3:09:33.89 11:25/M
59 KIP SUDAK MARS PA 1008 39 M 20 30-39 3:09:52.62 11:26/M
60 SEAN CLOUSER WILLIAMSPORT PA 614 44 M 20 40-49 3:10:20.12 11:28/M
61 SIMON PARROTT RENO NV 894 40 M 21 40-49 3:10:44.97 11:29/M
62 TIMOTHY NASH OREFIELD PA 878 49 M 22 40-49 3:11:00.38 11:30/M
63 CLIFF CUMMINGS WASHINGTON DC 633 32 M 21 30-39 3:11:12.63 11:31/M
64 CRAIG UHLER WILLIAMSPORT PA 1024 28 M 13 20-29 3:12:23.52 11:35/M
65 MATTHEW KING NARVON PA 781 28 M 14 20-29 3:13:00.11 11:38/M
66 CRAIG FLEMING STATE COLLEGE PA 687 46 M 23 40-49 3:13:17.77 11:39/M
67 VINCENT CORSO PORT MATILDA PA 623 38 M 22 30-39 3:13:34.36 11:40/M
68 GARY LAMPMAN RIDGWAY PA 796 53 M 2 50-59 3:14:25.67 11:43/M
69 JOSEPH EATON JERSEY SHORE PA 655 45 M 24 40-49 3:14:39.10 11:44/M
70 DUANE SERPENTINE WEST CHESTER PA 964 41 M 25 40-49 3:15:04.34 11:45/M
71 CONNOR VERES ALEXANDRIA VA 1032 26 M 15 20-29 3:15:26.16 11:46/M
72 JAMES COMPTON WILLOW GROVE PA 619 41 M 26 40-49 3:16:42.86 11:51/M
73 JEREMY KNOEBEL SOUTH WILLIAMSPORT PA 786 43 M 27 40-49 3:17:26.51 11:54/M
74 JOSHUA FOULDS MOUNT JOY PA 691 30 M 23 30-39 3:17:35.23 11:54/M
75 TOBY SNIDER CHAMBERSBURG PA 981 31 M 24 30-39 3:18:22.66 11:57/M
76 ANDREW WARNER STATE COLLEGE PA 1040 54 M 3 50-59 3:18:47.29 11:58/M
77 KENNETH HURD SPRING MILLS PA 748 52 M 4 50-59 3:19:45.85 12:02/M
78 THOMAS SAGINAK FINDLEY LAKE NY 951 63 M 1 60-99 3:20:19.81 12:04/M
79 HEATHER HORTH PAINTED POST NY 232 35 F 1 30-39 3:20:41.51 12:05/M
80 MATTHEW EVANS MILLVILLE PA 670 42 M 28 40-49 3:20:48.80 12:06/M
81 MARC LINTAL PORT MATILDA PA 811 40 M 29 40-49 3:21:08.29 12:07/M
82 TYLER WAGNER SOUTH WILLIAMSPORT PA 1035 29 M 16 20-29 3:21:09.40 12:07/M
83 LAURA HENSLER COGAN STATION PA 1078 36 F 2 30-39 3:21:26.76 12:08/M
84 JOE QUATRINI ATHENS PA 915 41 M 30 40-49 3:21:35.28 12:09/M
85 LARIE HALL MORRISDALE PA 202 49 F 3 40-49 3:21:45.25 12:09/M
86 NATE KING CENTRE HALL PA 782 44 M 31 40-49 3:22:38.78 12:12/M
87 ADAM HECKROTH PERKIOMENVILLE PA 733 36 M 25 30-39 3:23:00.28 12:14/M
88 BOB BAUER BROCKWAY PA 563 45 M 32 40-49 3:23:03.85 12:14/M
89 BRENDAN DELANY WASHINGTON DC 1075 39 M 26 30-39 3:23:08.94 12:14/M
90 BRIAN FIORE MACUNGIE PA 683 44 M 33 40-49 3:23:11.53 12:14/M
91 GARRET GRAFF JERSEY SHORE PA 711 45 M 34 40-49 3:23:12.60 12:14/M
92 JEFFREY WEIDOW ST. MARYS PA 1047 33 M 27 30-39 3:23:14.24 12:15/M
93 KENDRICK MULLET MILLERSBURG OH 872 37 M 28 30-39 3:23:19.55 12:15/M
94 COLE RUIZ WEST RIVER MD 944 15 M 3 1-19 3:24:00.78 12:17/M
95 JARL SNIDER SPRING MILLS PA 980 48 M 35 40-49 3:24:02.49 12:17/M
96 JASON KOBBE TUNKHANNOCK PA 787 42 M 36 40-49 3:24:04.32 12:18/M
97 JODY DEWALD MILLVILLE PA 644 49 M 37 40-49 3:24:05.27 12:18/M
98 MATT ALDINGER HALIFAX PA 554 35 M 29 30-39 3:24:21.26 12:19/M
99 TONY MATTUCCI HUGHESVILLE PA 833 51 M 5 50-59 3:24:37.51 12:20/M
100 GREG SCRITCHFIELD NEW HOLLAND PA 963 42 M 38 40-49 3:24:52.10 12:20/M
 
Place Name City Bib No Age Gender Age Group Total Time Pace
101 DAVID FERRY WILLIAMSPORT PA 679 49 M 39 40-49 3:25:09.26 12:22/M
102 MATT HOPKINS WASHINGTON DC 1076 40 M 40 40-49 3:25:18.68 12:22/M
103 SOPHORN CHOUP PHILADELPHIA PA 85 38 F 3 30-39 3:25:36.60 12:23/M
104 ANDREW LUND LITITZ PA 824 34 M 30 30-39 3:26:09.17 12:25/M
105 ASHLEY SCHRAG PENNSYLVANIA FURNACE PA 425 33 F 4 30-39 3:26:09.99 12:25/M
106 CRYSTAL PECHT BELLEFONTE PA 376 29 F 2 20-29 3:26:22.41 12:26/M
107 STEPHEN SYWY CARNEGIE PA 1016 28 M 17 20-29 3:26:51.93 12:28/M
108 SHANNON OAKES ELMIRA NY 366 41 F 4 40-49 3:27:42.99 12:31/M
109 TANIA JACOBSEN WAVERLY NY 242 40 F 5 40-49 3:28:17.45 12:33/M
110 LOGAN SHADY WATSONTOWN PA 965 23 M 18 20-29 3:28:18.98 12:33/M
111 WILL DREXLER WEXFORD PA 651 41 M 41 40-49 3:28:21.92 12:33/M
112 STEVE WILLIG LANCASTER PA 1053 46 M 42 40-49 3:28:37.98 12:34/M
113 JACK INSCOE RICHMOND VA 751 34 M 31 30-39 3:28:55.12 12:35/M
114 DAN KOSSACK NEW WILMINGTON PA 791 55 M 6 50-59 3:29:39.22 12:38/M
115 BETH SCHNEIDER LEBANON PA 424 42 F 6 40-49 3:30:06.97 12:39/M
116 ED PRY WILLIAMSPORT PA 914 48 M 43 40-49 3:30:07.19 12:39/M
117 COLEMAN RUIZ WEST RIVER MD 945 43 M 44 40-49 3:31:18.41 12:44/M
118 MATT MILLER MILLERSBURG OH 855 36 M 32 30-39 3:32:19.66 12:47/M
119 JOE KONTUR VICTOR NY 788 37 M 33 30-39 3:32:33.47 12:48/M
120 MERLIN STOLTZFUS MILL HALL PA 1000 27 M 19 20-29 3:32:47.46 12:49/M
121 DENVER YODER MILLERSBURG OH 1059 41 M 45 40-49 3:33:04.95 12:50/M
122 J. SCOTT NEWTON WARREN PA 883 39 M 34 30-39 3:33:20.69 12:51/M
123 BEN JONSON DALLAS TX 761 30 M 35 30-39 3:33:35.81 12:52/M
124 MICHAEL ZELIN WASHINGTON DC 1062 39 M 36 30-39 3:34:02.69 12:54/M
125 JAMES CROCKER WOODBURY CT 631 40 M 46 40-49 3:34:36.45 12:56/M
126 MARK CHILTON COOPERSBURG PA 608 43 M 47 40-49 3:34:47.51 12:56/M
127 JASON KING NARVON PA 780 30 M 37 30-39 3:35:22.13 12:58/M
128 MIKE FINKBINER BERNVILLE PA 682 40 M 48 40-49 3:35:42.45 13:00/M
129 MARK ROZICK PORT MATILDA PA 941 60 M 2 60-99 3:36:00.59 13:01/M
130 REBECCA WHITESELL BELLEFONTE PA 536 56 F 3 50-59 3:38:15.14 13:09/M
131 KAITLYN SINGER SOUTH WILLIAMSPORT PA 452 29 F 3 20-29 3:38:36.91 13:10/M
132 KEVIN HARRIS PHILADELPHIA PA 727 33 M 38 30-39 3:38:47.41 13:11/M
133 RONALD BARNES HOWARD PA 562 52 M 7 50-59 3:38:50.39 13:11/M
134 STEFANIE FEDDER WILMINGTON DE 139 36 F 5 30-39 3:38:57.87 13:11/M
135 KEVIN PECHT BEECH CREEK PA 899 37 M 39 30-39 3:39:10.64 13:12/M
136 SAMANTHA HURLBUTT JERSEY SHORE PA 237 37 F 6 30-39 3:39:34.32 13:14/M
137 RANDY MOORE STATE COLLEGE PA 867 60 M 3 60-99 3:40:18.13 13:16/M
138 SETH HIBBS HATBORO PA 743 26 M 20 20-29 3:40:21.59 13:16/M
139 CHRIS KURIGA DUBOISTOWN PA 795 40 M 49 40-49 3:41:06.16 13:19/M
140 TRISTIN FORNEY WILLIAMSPORT PA 1089 34 M 40 30-39 3:41:24.68 13:20/M
141 DANIEL FLICKINGER PHILADELPHIA PA 688 46 M 50 40-49 3:41:53.62 13:22/M
142 CHERYL SETTLE SCHNECKSVILLE PA 433 42 F 7 40-49 3:42:04.15 13:23/M
143 ANDREW MUSSELMAN WILLOW STREET PA 874 31 M 41 30-39 3:42:10.48 13:23/M
144 BRANDON ENGLAND WILLIAMSBURG PA 665 35 M 42 30-39 3:42:26.80 13:24/M
145 JAYE GREENFIELD PITTSBURGH PA 194 38 F 7 30-39 3:42:37.86 13:25/M
146 BARRON TAYLOR THREE SPRINGS PA 1017 46 M 51 40-49 3:42:51.35 13:25/M
147 CHRISTINE LE LANCASTER PA 286 26 F 4 20-29 3:42:58.54 13:26/M
148 BROCK KLINE BERNVILLE PA 785 37 M 43 30-39 3:44:25.10 13:31/M
149 CHRISTOPHER FRISONE BALTIMORE MD 696 38 M 44 30-39 3:44:38.56 13:32/M
150 SHELDON BENDER MILL HALL PA 569 30 M 45 30-39 3:44:39.17 13:32/M
151 BENJAMIN PROBERT RENOVO PA 912 17 M 4 1-19 3:45:09.92 13:34/M
152 TUSHANNA HABALAR WILLIAMSPORT PA 197 43 F 8 40-49 3:45:32.59 13:35/M
153 WILLIAM SCHLORFF LOCK HAVEN PA 958 54 M 8 50-59 3:45:34.96 13:35/M
154 LAURIE HENDRICKS JERSEY SHORE PA 216 49 F 9 40-49 3:45:43.30 13:36/M
155 JARED SHOLLEY MIFFLINBURG PA 1072 39 M 46 30-39 3:45:51.67 13:36/M
156 NICHOLAS HESSERT WILLIAMSPORT PA 741 28 M 21 20-29 3:46:45.20 13:40/M
157 JENNY SHIREMAN MOUNT JOY PA 446 34 F 8 30-39 3:46:50.92 13:40/M
158 JOSEPH MOORE LOCK HAVEN PA 866 18 M 5 1-19 3:46:54.33 13:40/M
159 BLAIR MOHN CONESTOGA PA 864 58 M 9 50-59 3:47:01.90 13:41/M
160 KEN KREMER MONTOURSVILLE PA 793 51 M 10 50-59 3:47:08.83 13:41/M
161 PATRICK SHANAHAN WAYNE PA 967 33 M 47 30-39 3:47:57.78 13:44/M
162 MORIAH PETERS SOUTH ABINGTON TWO PA 380 44 F 10 40-49 3:48:11.73 13:45/M
163 DIANA WOLFE JOHNSONBURG PA 545 49 F 11 40-49 3:48:20.49 13:45/M
164 ANDREW LEVASSEUR RICHMOND VA 807 42 M 52 40-49 3:48:39.23 13:46/M
165 SAMUEL PROBST LOCK HAVEN PA 913 48 M 53 40-49 3:49:10.56 13:48/M
166 ADAM BRENNAN TROUT RUN PA 591 37 M 48 30-39 3:49:19.95 13:49/M
167 JEFF RITENOUR MILTON PA 931 43 M 54 40-49 3:49:21.42 13:49/M
168 AARON CRIST MILTON PA 629 44 M 55 40-49 3:49:33.99 13:50/M
169 GARY PETERSON PHILADELPHIA PA 903 57 M 11 50-59 3:49:44.77 13:50/M
170 RALPH SMITH ALTOONA PA 978 46 M 56 40-49 3:49:51.81 13:51/M
171 KRISTIN SYLVIA MACUNGIE PA 501 46 F 12 40-49 3:49:56.19 13:51/M
172 BRIAN BERBARY COCKEYSVILLE MD 572 41 M 57 40-49 3:50:02.48 13:51/M
173 CORTNEY LOFFREDO JERSEY SHORE PA 290 29 F 5 20-29 3:50:13.50 13:52/M
174 MÓIRA CAHILL MARLTON NJ 68 24 F 6 20-29 3:50:14.92 13:52/M
175 JILL SNAVELY ZION GROVE PA 463 40 F 13 40-49 3:50:25.51 13:53/M
176 RYAN NAPP TOWANDA PA 876 40 M 58 40-49 3:50:38.54 13:54/M
177 JOHN FRANCIS NORTH BEND PA 694 16 M 6 1-19 3:50:41.78 13:54/M
178 HEIDI STOLTZFUS NEW HOLLAND PA 488 47 F 14 40-49 3:50:49.50 13:54/M
179 KELLY CAPIZZI LAFAYETTE HILL PA 72 27 F 7 20-29 3:50:53.55 13:55/M
180 LARA ARNDT EAST STROUDSBURG PA 11 33 F 9 30-39 3:50:55.43 13:55/M
181 MATTHEW STOLTZFUS NEW HOLLAND PA 999 21 M 22 20-29 3:50:55.79 13:55/M
182 ELIZABETH MOORES MONTOURSVILLE PA 340 40 F 15 40-49 3:51:15.54 13:56/M
183 ASHLYN WERT MCELHATTAN PA 533 18 F 1 1-19 3:51:40.35 13:57/M
184 LAVERNE BEACHY MILL HALL PA 565 43 M 59 40-49 3:51:44.10 13:58/M
185 SCOTT STOLTZFUS GEIGERTOWN PA 1002 53 M 12 50-59 3:52:03.51 13:59/M
186 FREDDIE MILLER SUGARCREEK OH 851 42 M 60 40-49 3:52:24.85 14:00/M
187 FIRMAN MILLER DUNDEE OH 850 34 M 49 30-39 3:52:44.33 14:01/M
188 KESHAWN MULLET MILLERSBURG OH 873 34 M 50 30-39 3:52:45.78 14:01/M
189 STEFANIE SMITH LOCKWOOD NY 461 28 F 8 20-29 3:52:51.28 14:02/M
190 BENJAMIN OAKES ELMIRA NY 889 40 M 61 40-49 3:52:51.70 14:02/M
191 ALEXANDER FOX REEDSVILLE PA 693 55 M 13 50-59 3:52:51.91 14:02/M
192 ALEXANDER NOHAI-SEAMAN ROCKY POINT NY 884 41 M 62 40-49 3:53:23.28 14:04/M
193 JIM VANDISH OSWEGO NY 1028 47 M 63 40-49 3:53:34.24 14:04/M
194 GALEN KAUFFMAN MILLERSBURG OH 765 38 M 51 30-39 3:53:54.59 14:05/M
195 SHERRY LYNCH MONTOURSVILLE PA 296 55 F 4 50-59 3:54:12.27 14:07/M
196 MEGAN POWERS AMBLER PA 391 33 F 10 30-39 3:54:13.78 14:07/M
197 LEA BECKER RIEGELSVILLE PA 32 48 F 16 40-49 3:54:19.45 14:07/M
198 JOHN TROVATO LITITZ PA 1022 37 M 52 30-39 3:54:44.52 14:08/M
199 ALEXIS SHANK MARION CENTER PA 438 34 F 11 30-39 3:54:55.94 14:09/M
200 RICHARD POOLE WILLIAMSPORT PA 908 41 M 64 40-49 3:54:57.14 14:09/M
 
Place Name City Bib No Age Gender Age Group Total Time Pace
201 SHAWN BROWN ROME PA 593 42 M 65 40-49 3:54:59.51 14:09/M
202 ANDREW FOSS PHILADELPHIA PA 689 35 M 53 30-39 3:55:00.62 14:09/M
203 AARON STEHMAN LOCK HAVEN PA 994 36 M 54 30-39 3:55:09.76 14:10/M
204 MEGHAN MONAHAN PITTSBURGH PA 339 28 F 9 20-29 3:55:10.21 14:10/M
205 ALYSSA CHANCE PITTSBURGH PA 80 42 F 17 40-49 3:55:18.96 14:10/M
206 ASHLEY SITLER MONTOURSVILLE PA 453 28 F 10 20-29 3:55:25.48 14:11/M
207 BRETT DODSON HOLLIDAYSBURG PA 1099 32 M 55 30-39 3:55:39.75 14:12/M
208 LISA SPRANKLE ALTOONA PA 472 37 F 12 30-39 3:55:43.60 14:12/M
209 SUSAN BROWN MEDIA PA 62 53 F 5 50-59 3:55:44.13 14:12/M
210 SUE REESE BELLEFONTE PA 403 58 F 6 50-59 3:55:48.10 14:12/M
211 MIKE ZIMMERMAN SINKING SPRING PA 1065 37 M 56 30-39 3:56:32.50 14:15/M
212 CHERYL HAUS LANCASTER PA 208 34 F 13 30-39 3:56:57.77 14:16/M
213 AMANDA WILCZYNSKI MAYFIELD PA 538 35 F 14 30-39 3:57:13.74 14:17/M
214 JODY WEIDNER GILLETT PA 1046 53 M 14 50-59 3:57:36.43 14:19/M
215 JEFFRY SCHIESLER PORT MATILDA PA 957 62 M 4 60-99 3:57:52.73 14:20/M
216 WILL LONGACRE SINKING SPRING PA 819 38 M 57 30-39 3:57:57.99 14:20/M
217 MICHELLE ADAMS VENANGO PA 2 29 F 11 20-29 3:58:10.98 14:21/M
218 MICHAEL FITZGERALD PORT ROYAL PA 686 46 M 66 40-49 3:58:13.70 14:21/M
219 MARY STANTON PLYMOUTH MEETING PA 479 45 F 18 40-49 3:58:31.80 14:22/M
220 SARAH HUBER LANCASTER PA 235 30 F 15 30-39 3:58:32.98 14:22/M
221 KATHY LAMPMAN RIDGWAY PA 280 51 F 7 50-59 3:59:40.82 14:26/M
222 JUSTIN COVELLI ERDENHEIM PA 625 38 M 58 30-39 4:00:51.70 14:31/M
223 BRIAN CHILTON BOALSBURG PA 607 48 M 67 40-49 4:01:05.32 14:31/M
224 DICK WRIGHT STATE COLLEGE PA 1058 56 M 15 50-59 4:01:07.15 14:32/M
225 DAN LINDOERFER PHILADELPHIA PA 810 39 M 59 30-39 4:01:08.77 14:32/M
226 JASON RAUP BLOOMSBURG PA 921 39 M 60 30-39 4:01:17.33 14:32/M
227 MICHAEL SYKES HOWARD PA 1014 36 M 61 30-39 4:01:28.21 14:33/M
228 MICHELE BARE ROBESONIA PA 21 37 F 16 30-39 4:01:35.46 14:33/M
229 BRANDON ROSETTIE HORSEHEADS NY 939 42 M 68 40-49 4:02:18.71 14:36/M
230 SCOTT CARTER MOON TWP. PA 601 26 M 23 20-29 4:02:40.45 14:37/M
231 TIERNEY WILLIAMS WILLIAMSPORT PA 541 27 F 12 20-29 4:02:59.34 14:38/M
232 ROBERT L MARTIN MILL HALL PA 831 15 M 7 1-19 4:03:08.91 14:39/M
233 KAREN MILLER PORT MATILDA PA 327 53 F 8 50-59 4:03:09.69 14:39/M
234 STEVEN RIER DANVILLE PA 928 48 M 69 40-49 4:03:22.69 14:40/M
235 JAMES MCCULLOUGH CROYDON PA 838 40 M 70 40-49 4:03:30.51 14:40/M
236 BROOKE ANSTADT HUGHESVILLE PA 9 37 F 17 30-39 4:03:33.38 14:40/M
237 GARTH MITCHELL MARION NY 862 54 M 16 50-59 4:03:35.61 14:40/M
238 WILLIAM HAWKE ROBESONIA PA 731 41 M 71 40-49 4:03:36.95 14:40/M
239 GEORGE RUSCZYK LOCK HAVEN PA 946 37 M 62 30-39 4:04:05.37 14:42/M
240 SAMANTHA WEAVER JERSEY SHORE PA 525 45 F 19 40-49 4:04:07.94 14:42/M
241 TOM HAWKINS NEW PALTZ NY 1074 51 M 17 50-59 4:04:20.83 14:43/M
242 HILLARY HOFSTROM COGAN STATION PA 224 36 F 18 30-39 4:04:37.12 14:44/M
243 CHRISTOPHER LAUDO STRASBURG PA 801 50 M 18 50-59 4:04:45.67 14:45/M
244 SEAN CONLIN NEW COLUMBIA PA 620 48 M 72 40-49 4:05:15.18 14:46/M
245 REBECCA PERROTTO SOUTH WILLIAMSPORT PA 379 33 F 19 30-39 4:05:25.80 14:47/M
246 AMBER MONAGHAN LITITZ PA 338 36 F 20 30-39 4:05:38.80 14:48/M
247 ALAN LICHTENWALNER EMPORIUM PA 808 53 M 19 50-59 4:05:46.56 14:48/M
248 ALAN HARPSTER LEOLA PA 725 42 M 73 40-49 4:06:43.91 14:52/M
249 TODD BERGER SPRING TX 574 54 M 20 50-59 4:06:52.55 14:52/M
250 JULIE WEAVER LEBANON PA 524 34 F 21 30-39 4:07:06.66 14:53/M
251 RAY KRISTOFIK JULIAN PA 794 61 M 5 60-99 4:07:20.19 14:54/M
252 ADRIENNE GOSS PUNXSUTAWNEY PA 182 30 F 22 30-39 4:07:33.65 14:55/M
253 MARK SWARTLEY BIRDSBORO PA 1013 43 M 74 40-49 4:08:15.64 14:57/M
254 SHELLY CONNER WILLIAMSPORT PA 95 35 F 23 30-39 4:08:26.22 14:58/M
255 ERICK EDLER COGAN STATION PA 658 37 M 63 30-39 4:08:50.86 14:59/M
256 AUTUMN HARRIS PITTSBURGH PA 204 37 F 24 30-39 4:09:03.90 15:00/M
257 TONYA WELSHANS JERSEY SHORE PA 532 40 F 20 40-49 4:09:03.95 15:00/M
258 STEPHEN SPINDA KERSEY PA 990 58 M 21 50-59 4:09:16.68 15:01/M
259 MARC LAUBER HOLLIDAYSBURG PA 800 43 M 75 40-49 4:09:29.77 15:02/M
260 TRACY NOLL LOCK HAVEN PA 364 48 F 21 40-49 4:09:37.89 15:02/M
261 JOSH CLEMENTE TYRONE PA 611 40 M 76 40-49 4:10:07.23 15:04/M
262 RICHARD FILLMAN JERSEY SHORE PA 681 65 M 6 60-99 4:10:39.14 15:06/M
263 KIMARIE GORSLINE ATHENS PA 181 40 F 22 40-49 4:10:43.63 15:06/M
264 BRENT MILLER SUGARCREEK OH 848 37 M 64 30-39 4:11:27.86 15:09/M
265 GILLIAN SOLES PITTSFORD NY 466 39 F 25 30-39 4:11:35.37 15:09/M
266 NICOLAS LOVETT PARLIN NJ 821 29 M 24 20-29 4:11:58.83 15:11/M
267 CHRISTOPHER COON TOWANDA PA 621 31 M 65 30-39 4:12:09.44 15:11/M
268 BRIAN COPPADGE WILLIAMSPORT PA 622 27 M 25 20-29 4:12:09.61 15:11/M
269 KEVIN SORGEN JERSEY SHORE PA 987 43 M 77 40-49 4:12:32.39 15:13/M
270 DAWN SHIELDS FALLS CREEK PA 445 54 F 9 50-59 4:12:57.26 15:14/M
271 STACIE MARSH OIL CITY PA 308 30 F 26 30-39 4:13:03.36 15:15/M
272 DAVID SUROVEC HOWARD PA 1012 38 M 66 30-39 4:13:14.99 15:15/M
273 CHAD GRAZIANO CLEARFIELD PA 712 32 M 67 30-39 4:13:29.64 15:16/M
274 JENNIFER ELDRED TROUT RUN PA 135 38 F 27 30-39 4:13:59.99 15:18/M
275 DAVID BERGER LANDENBERG PA 573 44 M 78 40-49 4:14:36.85 15:20/M
276 MARK SHARER SPRING MILLS PA 970 46 M 79 40-49 4:15:15.84 15:23/M
277 JOHN SHAFFER JERSEY SHORE PA 966 47 M 80 40-49 4:15:23.61 15:23/M
278 ELIZABETH SHAFFER JERSEY SHORE PA 435 15 F 2 1-19 4:15:23.62 15:23/M
279 JON SCHALL LOCK HAVEN PA 955 42 M 81 40-49 4:15:26.72 15:23/M
280 DAUN SIGAFOOSE ABINGDON MD 974 57 M 22 50-59 4:16:00.34 15:25/M
281 MARK BERGSTROM STATE COLLEGE PA 575 57 M 23 50-59 4:16:26.27 15:27/M
282 STEVE SNYDER JENKINTOWN PA 985 32 M 68 30-39 4:16:28.92 15:27/M
283 JOSHUA SNYDER GLEN MILLS PA 983 34 M 69 30-39 4:16:29.73 15:27/M
284 MELISSA LONG UNITYVILLE PA 291 39 F 28 30-39 4:16:30.55 15:27/M
285 THOMAS BINKLEY SOUTH WILLIAMSPORT PA 578 51 M 24 50-59 4:16:55.33 15:29/M
286 CAT ECCKER SCHWENKSVILLE PA 129 23 F 13 20-29 4:16:58.26 15:29/M
287 MELISSA DAVIS HANOVER TOWNSHIP PA 109 35 F 29 30-39 4:17:26.57 15:30/M
288 TRACY KNOEBEL SOUTH WILLIAMSPORT PA 268 40 F 23 40-49 4:17:40.77 15:31/M
289 TINA REMSNYDER HUGHESVILLE PA 408 41 F 24 40-49 4:18:31.92 15:34/M
290 ASHLEY ALLEN WASHINGTON DC 6 40 F 25 40-49 4:18:49.16 15:35/M
291 DUSTIN BEST LOGANTON PA 576 34 M 70 30-39 4:18:50.43 15:36/M
292 KERRI GIRTON WILLIAMSPORT PA 176 40 F 26 40-49 4:18:54.29 15:36/M
293 KARL MILLER TOWANDA PA 854 59 M 25 50-59 4:18:57.15 15:36/M
294 SHAUN BELOW SWIFTWATER PA 568 44 M 82 40-49 4:19:25.25 15:38/M
295 ANDREW RAUP :BALTIMORE MD 920 37 M 71 30-39 4:19:28.51 15:38/M
296 EUGENIA RESENDIZ CLARK EMPORIUM PA 409 45 F 27 40-49 4:19:39.51 15:38/M
297 JOSHUA PAULING WILLIAMSPORT PA 897 31 M 72 30-39 4:20:24.92 15:41/M
298 RYAN SCHANNAUER GLENN MILLS PA 1082 37 M 73 30-39 4:20:41.83 15:42/M
299 ROBERT RENNINGER WILLIAMSPORT PA 925 64 M 7 60-99 4:21:06.25 15:44/M
300 DAN MITCHAM LONDON OH 860 48 M 83 40-49 4:21:41.29 15:46/M
 
Place Name City Bib No Age Gender Age Group Total Time Pace
301 MICHAEL WERNER AMBLER PA 1049 41 M 84 40-49 4:22:17.93 15:48/M
302 MATTHEW TORQUATO BELLEVILLE PA 1021 48 M 85 40-49 4:22:36.24 15:49/M
303 HAROLD CODER CHAMBERSBURG PA 616 39 M 74 30-39 4:22:37.85 15:49/M
304 LAUREN BROOKS STATE COLLEGE PA 1093 37 F 30 30-39 4:22:57.62 15:50/M
305 BART PITRUS KING OF PRUSSIA PA 907 34 M 75 30-39 4:23:22.87 15:52/M
306 LAURA KUSTABORDER PITTSBURGH PA 277 47 F 28 40-49 4:23:43.66 15:53/M
307 CHRISTOPHER MORALES CHALFOUR PA 1073 38 M 76 30-39 4:23:55.25 15:54/M
308 DAVE SALVATORE WARREN PA 953 41 M 86 40-49 4:24:16.77 15:55/M
309 BRIAN BROWN LEWISBURG PA 592 43 M 87 40-49 4:24:18.46 15:55/M
310 SHERRY HYLAND JERSEY SHORE PA 239 53 F 10 50-59 4:24:20.92 15:55/M
311 LLOYD CLARKE PITTSBURGH PA 1092 56 M 26 50-59 4:24:40.18 15:57/M
312 TANIA SALANECK LEESPORT PA 421 38 F 31 30-39 4:25:04.68 15:58/M
313 BRAD ZEARFOSS SHANKSVILLE PA 1061 55 M 27 50-59 4:25:31.76 16:00/M
314 AUDREY WALSH WYNDMOOR PA 521 45 F 29 40-49 4:25:37.46 16:00/M
315 LOREE SPENCER CHERRY HILL NJ 470 39 F 32 30-39 4:25:53.77 16:01/M
316 GINA WERT MCELHATTAN PA 534 52 F 11 50-59 4:25:54.75 16:01/M
317 BRENNAN SULLIVAN WILLIAMSPORT PA 1009 15 M 8 1-19 4:26:01.51 16:02/M
318 JULIAN COBLENTZ SUGARCREEK OH 615 39 M 77 30-39 4:26:54.47 16:05/M
319 MEGHAN PHILLIPS NEW BRUNSWICK NJ 382 25 F 14 20-29 4:27:26.86 16:07/M
320 JAMES BUESING PERKASIE PA 596 48 M 88 40-49 4:27:38.24 16:07/M
321 WILLIAM LEHEW DUNCANSVILLE PA 804 53 M 28 50-59 4:27:38.64 16:07/M
322 BILL PATRICK BIRD IN HAND PA 896 53 M 29 50-59 4:28:03.32 16:09/M
323 STEPHEN BAREUTHER LANCASTER PA 561 55 M 30 50-59 4:28:05.74 16:09/M
324 AMANDA LANE DREXEL HILL PA 283 37 F 33 30-39 4:28:37.14 16:11/M
325 TODD KOPENHAVER REYNOLDSVILLE PA 789 40 M 89 40-49 4:28:49.49 16:12/M
326 TODD GIRTON WILLIAMSPORT PA 705 42 M 90 40-49 4:28:54.42 16:12/M
327 AMBER MARSH HOLLSOPPLE PA 307 29 F 15 20-29 4:29:04.48 16:13/M
328 MANVIR KAUR PITTSBURGH PA 253 26 F 16 20-29 4:29:19.72 16:13/M
329 KAIDA MUISE WILLIAMSPORT PA 349 17 F 3 1-19 4:29:31.91 16:14/M
330 JOHN REISENWEBER YORK PA 924 36 M 78 30-39 4:29:37.72 16:15/M
331 JANET CROCKER WOODBURY CT 102 40 F 30 40-49 4:29:42.70 16:15/M
332 DYLAN LEITCH JERSEY SHORE PA 805 17 M 9 1-19 4:29:47.47 16:15/M
333 TRAVIS CHAPPEL JERSEY SHORE PA 605 38 M 79 30-39 4:29:49.72 16:15/M
334 BRIAN JOLY PITTSBURGH PA 758 59 M 31 50-59 4:29:54.10 16:16/M
335 LARRY DITTY WORMLEYSBURG PA 647 45 M 91 40-49 4:29:56.47 16:16/M
336 KRISTIE SLINKOSKY SAINT MARYS PA 455 40 F 31 40-49 4:29:59.20 16:16/M
337 KEVIN GASPERICH PITTSBURGH PA 700 30 M 80 30-39 4:30:47.92 16:19/M
338 JULIE LAMBERT STATE COLLEGE PA 278 33 F 34 30-39 4:30:49.21 16:19/M
339 CHAD BROWN RED LION PA 1084 46 M 92 40-49 4:30:50.30 16:19/M
340 ROBERT ALBRIGHT AIRVILLE PA 1085 32 M 81 30-39 4:30:50.53 16:19/M
341 STACY RODGERS MIFFLINBURG PA 415 50 F 12 50-59 4:30:56.23 16:19/M
342 JAMIE BEACHEL DANVILLE PA 29 34 F 35 30-39 4:30:56.63 16:19/M
343 MICHELE WOLCOTT-LOVELL ELMIRA NY 544 42 F 32 40-49 4:30:59.21 16:19/M
344 RICHARD BUGAY JEANNETTE PA 597 34 M 82 30-39 4:31:00.21 16:20/M
345 JEFFREY RODGERS MIFFLINBURG PA 936 54 M 32 50-59 4:31:11.46 16:20/M
346 MICHELE EDWARDS LOCK HAVEN PA 131 39 F 36 30-39 4:31:19.44 16:21/M
347 SHELLEY MUTH DUBOIS PA 357 44 F 33 40-49 4:31:33.93 16:22/M
348 CHRISTOPHER CROCKER ROCKAWAY NJ 630 38 M 83 30-39 4:31:42.68 16:22/M
349 CHARLES FANUS PITTSBURGH PA 673 53 M 33 50-59 4:31:45.33 16:22/M
350 JEFFREY SHANKS TOWANDA PA 968 32 M 84 30-39 4:32:01.20 16:23/M
351 ANDREA RODI WILMINGTON DE 416 49 F 34 40-49 4:32:10.95 16:24/M
352 CHRISTIAN JARANI GLENMOORE PA 752 59 M 34 50-59 4:32:11.95 16:24/M
353 TYSON WELSHANS JERSEY SHORE PA 1048 42 M 93 40-49 4:32:27.92 16:25/M
354 DUSTIN CHAMBERS WASHINGTON DC 604 37 M 85 30-39 4:32:32.39 16:25/M
355 TINA BREINING JERSEY SHORE PA 58 36 F 37 30-39 4:32:42.95 16:26/M
356 KYLE GIBSON JERSEY SHORE PA 703 25 M 26 20-29 4:32:58.64 16:27/M
357 NANCY BELZ MARS PA 36 58 F 13 50-59 4:33:10.95 16:27/M
358 JAMIE SANDERS WILLIAMSPORT PA 954 49 M 94 40-49 4:33:17.84 16:28/M
359 KAYLA PROBERT RENOVO PA 394 13 F 4 1-19 4:33:40.85 16:29/M
360 LEVI FISHER MILL HALL PA 684 23 M 27 20-29 4:33:51.94 16:30/M
361 MATTHEW SHROUT SHREWSBURY PA 972 33 M 86 30-39 4:33:54.10 16:30/M
362 DAN FARLEY NEW COLUMBIA PA 674 31 M 87 30-39 4:33:54.69 16:30/M
363 LAURA BRENNAN TROUT RUN PA 59 35 F 38 30-39 4:34:00.19 16:30/M
364 DURBOIS ZIM FAIRFAX VA 1064 57 M 35 50-59 4:34:23.93 16:32/M
365 KAREN MANSFIELD LOGANTON PA 303 54 F 14 50-59 4:34:31.68 16:32/M
366 SARAH COLLIER LOCK HAVEN PA 92 27 F 17 20-29 4:34:39.43 16:33/M
367 KRISTIN MANHART LOCK HAVEN PA 302 27 F 18 20-29 4:34:55.93 16:34/M
368 TOM SULLIVAN WILLIAMSPORT PA 1010 40 M 95 40-49 4:35:04.35 16:34/M
369 LORI KETTERER BIRDSBORO PA 261 45 F 35 40-49 4:35:10.31 16:35/M
370 NICK LOFFREDO AVIS PA 816 43 M 96 40-49 4:35:49.59 16:37/M
371 ROBBIE RISLEY OLYPHANT PA 930 35 M 88 30-39 4:36:21.57 16:39/M
372 LONI RISLEY OLYPHANT PA 412 37 F 39 30-39 4:36:21.97 16:39/M
373 SHELIA JONES MUNCY PA 250 34 F 40 30-39 4:36:49.16 16:41/M
374 JENNIFER HEPINGER BIG FLATS NY 218 42 F 36 40-49 4:37:29.35 16:43/M
375 JENNIFER CARROLL PLEASANT GAP PA 75 44 F 37 40-49 4:38:20.49 16:46/M
376 WILLIAM SCHULTZ FOLSOM PA 961 37 M 89 30-39 4:38:31.70 16:47/M
377 MEGAN STEWART BEDMINSTER NJ 486 25 F 19 20-29 4:38:47.91 16:48/M
378 JACQUELYN COMERFORD SCRANTON PA 94 44 F 38 40-49 4:39:11.24 16:49/M
379 CHARLIE PENSINGER SHIPPENSBURG PA 901 43 M 97 40-49 4:40:05.64 16:52/M
380 MIKE DUTROW MOUNTAIN TOP PA 654 42 M 98 40-49 4:40:14.13 16:53/M
381 DALLAS BEACHEL DANVILLE PA 564 35 M 90 30-39 4:40:19.23 16:53/M
382 EMMA RUDE WILLIAMSPORT PA 418 14 F 5 1-19 4:40:20.67 16:53/M
383 JOSH ERCOLE AMBLER PA 666 43 M 99 40-49 4:40:34.72 16:54/M
384 DONALD MANSFIELD LOGANTON PA 827 48 M 100 40-49 4:41:00.88 16:56/M
385 SCOTT CHARNEY LANCASTER PA 606 56 M 36 50-59 4:41:04.38 16:56/M
386 JANE MUNN ATHENS PA 352 50 F 15 50-59 4:41:42.56 16:58/M
387 CHRISTOPHER KEELING WINDERMERE FL 768 46 M 101 40-49 4:41:43.38 16:58/M
388 BART REIN FOREST HILL MD 1070 53 M 37 50-59 4:41:51.13 16:59/M
389 ASHLEY BACHMAN JERSEY SHORE PA 15 29 F 20 20-29 4:41:56.37 16:59/M
390 REBECCA MURDOCK MIDDLEBURY CENTER PA 354 39 F 41 30-39 4:41:57.87 16:59/M
391 TIFFANY HADDAD JERSEY SHORE PA 198 32 F 42 30-39 4:42:05.87 17:00/M
392 PATRICK FOURNEY LOCK HAVEN PA 692 47 M 102 40-49 4:42:30.20 17:01/M
393 JOEL PERROTTO SOUTH WILLIAMSPORT PA 902 36 M 91 30-39 4:42:48.78 17:02/M
394 SCOTT VALAZAK INDIANA PA 1027 38 M 92 30-39 4:43:19.10 17:04/M
395 BILL MCCONNELL WATERVILLE PA 837 42 M 103 40-49 4:43:44.37 17:06/M
396 ELIAS KENNEDY LINDEN PA 771 36 M 93 30-39 4:43:58.29 17:06/M
397 RYAN BORING ELKHART IN 585 34 M 94 30-39 4:44:11.27 17:07/M
398 RYAN BOSTDORF ELVERSON PA 586 28 M 28 20-29 4:44:50.85 17:10/M
399 LAURELL BOSTDORF ELVERSON PA 50 28 F 21 20-29 4:44:51.10 17:10/M
400 AMANDA MURDOCK WILCOX PA 353 31 F 43 30-39 4:44:51.60 17:10/M
 
Place Name City Bib No Age Gender Age Group Total Time Pace
401 WILL STRALEY PORT MATILDA PA 1004 14 M 10 1-19 4:44:53.65 17:10/M
402 CARLENE MUSSER TRAFFORD PA 356 39 F 44 30-39 4:45:34.98 17:12/M
403 MIKE KEMEN BEL AIR MD 770 54 M 38 50-59 4:45:51.29 17:13/M
404 LONNIE SNYDER RICHFIELD PA 984 46 M 104 40-49 4:46:48.33 17:17/M
405 FRED COWDERY PERKASIE PA 626 53 M 39 50-59 4:47:07.25 17:18/M
406 MITCH MORRISON` BROCKPORT PA 869 59 M 40 50-59 4:47:29.57 17:19/M
407 REBECCA RUSCZYK SOUTH WILLIAMSPORT PA 420 31 F 45 30-39 4:47:34.82 17:19/M
408 LAURIE HESS LITITZ PA 220 61 F 1 60-99 4:47:41.29 17:20/M
409 VANCE COHICK WILLIAMSPORT PA 617 43 M 105 40-49 4:47:41.57 17:20/M
410 JEFFREY LOVELL WILLIAMSPORT PA 1095 54 M 41 50-59 4:47:42.31 17:20/M
411 STEPHANIE LOVELL COGAN STATION PA 294 47 F 39 40-49 4:47:43.32 17:20/M
412 UNKNOWN PARTICAPANT 1080 0 M 1 0- 0 4:47:44.55 17:20/M
413 KATHLEEN HOLMES WILLIAMSPORT PA 226 36 F 46 30-39 4:47:46.18 17:20/M
414 JUSTINE LANDIS BLOOMSBURG PA 281 54 F 16 50-59 4:48:04.57 17:21/M
415 RYAN WILLIAMS TRAFFORD PA 1052 38 M 95 30-39 4:48:05.76 17:21/M
416 KIMBER BLACKMON WEEDVILLE PA 43 26 F 22 20-29 4:48:15.75 17:22/M
417 TODD DESMOND BEECH CREEK PA 643 57 M 42 50-59 4:48:44.19 17:24/M
418 MELISSA QUICK FLEMING PA 398 50 F 17 50-59 4:49:08.68 17:25/M
419 JOHN QUICK FLEMING PA 916 49 M 106 40-49 4:49:09.67 17:25/M
420 JENNIFER MORELLI RIDGWAY PA 341 50 F 18 50-59 4:49:21.13 17:26/M
421 MICHAEL BENTLEY FAIRFAX VA 571 35 M 96 30-39 4:49:21.32 17:26/M
422 RICK LONG SPRINGDALE OH 818 50 M 43 50-59 4:49:46.66 17:27/M
423 SHAINA GILBERT PORT MATILDA PA 174 35 F 47 30-39 4:50:16.50 17:29/M
424 CLAY MCMATH EAST WATERFORD PA 840 45 M 107 40-49 4:50:42.11 17:31/M
425 MONICA FLETCHER PITTSBURGH PA 143 41 F 40 40-49 4:51:18.54 17:33/M
426 ANNE GASPERICH PITTSBURGH PA 167 59 F 19 50-59 4:51:31.79 17:34/M
427 TONY KORCH NANTICOKE PA 790 58 M 44 50-59 4:51:35.28 17:34/M
428 ABIGAIL LAMPMAN RIDGWAY PA 279 23 F 23 20-29 4:51:46.54 17:35/M
429 LEE KELCHNER MILLVILLE PA 769 54 M 45 50-59 4:51:59.71 17:35/M
430 CHELSEA DELONG SAYRE PA 113 30 F 48 30-39 4:52:23.28 17:37/M
431 CHRISTY LONGACRE SINKING SPRING PA 292 33 F 49 30-39 4:52:41.26 17:38/M
432 MELONIE SAPPE DUNMORE PA 422 35 F 50 30-39 4:52:59.53 17:39/M
433 LENNY RIGG CLARENCE PA 929 45 M 108 40-49 4:54:09.77 17:43/M
434 WANDA GOOD NEW HOLLAND PA 180 54 F 20 50-59 4:54:12.87 17:43/M
435 RACHAEL FRAVEL JERSEY SHORE PA 153 23 F 24 20-29 4:54:20.52 17:44/M
436 ELLIOT JONES WILLIAMSPORT PA 760 30 M 97 30-39 4:54:46.47 17:45/M
437 SHEILA PACKER NORTHUMBERLAND PA 371 47 F 41 40-49 4:55:23.69 17:48/M
438 STEVEN NEELY BELLEFONTE PA 880 58 M 46 50-59 4:55:36.14 17:48/M
439 JEREMY ALLEN WASHINGTON DC 555 42 M 109 40-49 4:55:53.50 17:49/M
440 JEANA LUCAS BELLEFONTE PA 295 35 F 51 30-39 4:56:00.36 17:50/M
441 JOSH LUCAS BELLEFONTE PA 823 36 M 98 30-39 4:56:00.52 17:50/M
442 CHRISTINE CONNORS JOHNSTOWN PA 96 25 F 25 20-29 4:56:03.26 17:50/M
443 COLLEEN DEBOER ROULETTE PA 111 60 F 2 60-99 4:56:38.75 17:52/M
444 TERESSA MILLER LOGANTON PA 331 35 F 52 30-39 4:57:13.89 17:54/M
445 JASON HENRY SAYRE PA 737 39 M 99 30-39 4:57:17.74 17:55/M
446 DENNIS FALLON KEANSBURG NJ 672 30 M 100 30-39 4:57:43.99 17:56/M
447 ROBERT MARTIN NEW BLOOMFIELD PA 830 58 M 47 50-59 4:57:46.69 17:56/M
448 JEFFREY MILBURN SHIPPENSBURG PA 846 35 M 101 30-39 4:57:47.24 17:56/M
449 CARRIE PIFER MERCERSBURG PA 384 46 F 42 40-49 4:58:28.61 17:59/M
450 LARRY HARER WILLIAMSPORT PA 724 66 M 8 60-99 4:59:09.93 18:01/M
451 ROBBIE REEVES STREET MD 404 54 F 21 50-59 4:59:22.18 18:02/M
452 AMY MINNIER SUNBURY PA 334 42 F 43 40-49 4:59:26.23 18:02/M
453 WILLIAM GREENLAND SHADE GAP PA 715 41 M 110 40-49 4:59:39.47 18:03/M
454 THOMAS PARR ARLINGTON DC 893 43 M 111 40-49 4:59:39.89 18:03/M
455 ANDY MOYER BOALSBURG PA 870 47 M 112 40-49 4:59:42.54 18:03/M
456 KRISTIN KING QUAKERTOWN PA 264 37 F 53 30-39 4:59:44.37 18:03/M
457 JEFF GOOD CAMP HILL PA 708 47 M 113 40-49 4:59:57.21 18:04/M
458 NATE LENIG HALIFAX PA 806 40 M 114 40-49 4:59:57.60 18:04/M
459 CHARLES KING EAST NORRITON PA 775 35 M 102 30-39 5:00:39.72 18:07/M
460 DALE GLOVER MONTGOMERY PA 707 47 M 115 40-49 5:01:09.91 18:08/M
461 JENNIFER BRAUSER STATE COLLEGE PA 57 45 F 44 40-49 5:01:30.87 18:10/M
462 SUSAN BARDO LOCK HAVEN PA 20 54 F 22 50-59 5:02:07.70 18:12/M
463 TRACY GOLDER BLOOMSBURG PA 178 47 F 45 40-49 5:02:54.95 18:15/M
464 JIM HEPNER KING OF PRUSSIA PA 738 45 M 116 40-49 5:03:22.94 18:17/M
465 MARY LEHMAN LANCASTER PA 287 39 F 54 30-39 5:03:44.27 18:18/M
466 VICKY LANDIS LANCASTER PA 282 46 F 46 40-49 5:03:44.43 18:18/M
467 JOHN LLOYD BETHLEHEM PA 815 68 M 9 60-99 5:04:33.94 18:21/M
468 KATE WICHMANN NEW YORK NY 537 35 F 55 30-39 5:04:34.53 18:21/M
469 PAUL NOLL LOCK HAVEN PA 886 45 M 117 40-49 5:04:46.75 18:22/M
470 PETE GSTALDER MONTOURSVILLE PA 718 64 M 10 60-99 5:04:59.59 18:22/M
471 KYLER LILLY ALTOONA PA 809 19 M 11 1-19 5:05:42.59 18:25/M
472 VICTORIA BROWN SHARONVILLE OH 63 24 F 26 20-29 5:06:21.87 18:27/M
473 ERIN ANDREWS COUDERSPORT PA 8 40 F 47 40-49 5:06:26.14 18:28/M
474 DEREK JOHNSON SPRINGVILLE NY 754 40 M 118 40-49 5:06:30.17 18:28/M
475 JASON JEROZAL MERRICK NY 753 40 M 119 40-49 5:06:31.37 18:28/M
476 JENNIFER DEVORE MONTOURSVILLE PA 115 41 F 48 40-49 5:06:37.67 18:28/M
477 JENNIFER JEIRLES LOCK HAVEN PA 244 42 F 49 40-49 5:06:50.16 18:29/M
478 KRISTA GREENE SELLERSVILLE PA 193 38 F 56 30-39 5:06:50.19 18:29/M
479 JOSEPH OSWALD ASHLAND PA 890 55 M 48 50-59 5:07:00.36 18:30/M
480 BRENT STORM ALTOONA PA 1003 33 M 103 30-39 5:07:04.16 18:30/M
481 BRIAN LIPINSKI LEWISBURG PA 812 45 M 120 40-49 5:07:29.90 18:31/M
482 GRAYCE LANGHEINE YORK PA 1071 35 F 57 30-39 5:07:36.16 18:32/M
483 HEIDI HAUKE WILLIAMSPORT PA 207 47 F 50 40-49 5:07:36.82 18:32/M
484 KIM CASSEL MONTOURSVILLE PA 78 39 F 58 30-39 5:07:43.76 18:32/M
485 ANTHONY PACE WILLIAMSPORT PA 891 28 M 29 20-29 5:07:45.59 18:32/M
486 RICHARD GREENE LOCK HAVEN PA 714 48 M 121 40-49 5:08:00.50 18:33/M
487 VINCENT KAUFFMAN MILL HALL PA 766 41 M 122 40-49 5:08:05.15 18:34/M
488 ELISA SNOOK-MACMILLEN LOCK HAVEN PA 464 32 F 59 30-39 5:08:11.91 18:34/M
489 STEPHANIE STELTZER PITTSBURGH PA 483 34 F 60 30-39 5:08:12.78 18:34/M
490 LEAH ABBOTT PITTSBURGH PA 1 35 F 61 30-39 5:08:13.16 18:34/M
491 DAPHNE MCNAMARA COUDERSPORT PA 317 44 F 51 40-49 5:08:14.50 18:34/M
492 STEPHANIE MCDERMOTT LOCK HAVEN PA 314 42 F 52 40-49 5:08:26.84 18:35/M
493 THOMAS CONWAY DUNCANSVILLE PA 1098 39 M 104 30-39 5:08:36.15 18:35/M
494 ELLIE SPRINGMAN FORKSVILLE PA 474 13 F 6 1-19 5:08:41.66 18:36/M
495 STEPHANIE GENOVESE PORT MATILDA PA 169 50 F 23 50-59 5:08:57.65 18:37/M
496 SALLY VILLELLA PUNXSUATWNEY PA 513 60 F 3 60-99 5:08:58.15 18:37/M
497 ERIC MOYER ANNVILLE PA 871 42 M 123 40-49 5:09:00.49 18:37/M
498 TOM KING OTTSVILLE PA 783 63 M 11 60-99 5:09:29.50 18:39/M
499 JOYCE GARNET WARREN OH 166 46 F 53 40-49 5:09:39.39 18:39/M
500 BROOKE HEIDER EASTLAKE OH 212 43 F 54 40-49 5:09:39.86 18:39/M
 
Place Name City Bib No Age Gender Age Group Total Time Pace
501 NICHOLAS JANSEN COGAN STATION PA 1079 37 M 105 30-39 5:09:46.62 18:40/M
502 THEADORA JOINER MONTOURSVILLE PA 248 39 F 62 30-39 5:09:57.16 18:40/M
503 JOE HEATWOLE DALTON OH 732 37 M 106 30-39 5:10:32.38 18:42/M
504 MIKE MERUNKA PHILLIPSBURG NJ 842 34 M 107 30-39 5:10:49.55 18:43/M
505 ROBIN SKOSKO HONEY BROOK PA 454 45 F 55 40-49 5:10:49.76 18:43/M
506 MEG CLARK CHARDON OH 88 52 F 24 50-59 5:11:32.32 18:46/M
507 JEREMIAH NORTHRIDGE STATE COLLEGE PA 887 40 M 124 40-49 5:11:36.80 18:46/M
508 BILL MYERS LOCK HAVEN PA 875 53 M 49 50-59 5:11:39.12 18:46/M
509 BOBI JEAN MCFADDEN WHITEFORD MD 315 48 F 56 40-49 5:11:41.27 18:47/M
510 CHERYL COFFMAN DENVER PA 91 30 F 63 30-39 5:11:49.62 18:47/M
511 AMANDA JACOBS PORT MATILDA PA 241 42 F 57 40-49 5:12:01.24 18:48/M
512 SHARON PHILLIPS LEBANON PA 383 54 F 25 50-59 5:12:03.63 18:48/M
513 CAROLE KRUS UNIVERSITY HEIGHTS OH 275 50 F 26 50-59 5:12:14.26 18:49/M
514 BRIAN NAVIGLIA SPRING MILLS PA 879 40 M 125 40-49 5:12:38.87 18:50/M
515 STEPHANIE BEDISON LOCK HAVEN PA 33 63 F 4 60-99 5:13:08.89 18:52/M
516 JULIE GREENE LOCK HAVEN PA 192 47 F 58 40-49 5:13:28.77 18:53/M
517 SHANNON COSENTINE WILLIAMSPORT PA 100 43 F 59 40-49 5:13:34.86 18:53/M
518 WILLIAM PIFER MERCERSBURG PA 906 45 M 126 40-49 5:13:41.36 18:54/M
519 DENNY COLEGROVE WELLESBORO PA 1091 60 M 12 60-99 5:14:00.85 18:55/M
520 BECKI` MORRISON BROCKPORT PA 344 59 F 27 50-59 5:14:36.85 18:57/M
521 LAURIE POOLE PAWLEYS ISLAND SC 388 41 F 60 40-49 5:14:46.98 18:58/M
522 JUSTIN WALKER HERSHEY PA 1036 25 M 30 20-29 5:15:12.24 18:59/M
523 OLIVIA WALKER HERSHEY PA 520 26 F 27 20-29 5:15:12.59 18:59/M
524 STEFANIE WALSH SHICKSHINNY PA 522 51 F 28 50-59 5:16:12.28 19:03/M
525 JOSEPH WALSH SHICKSHINNY PA 1039 51 M 50 50-59 5:16:12.48 19:03/M
526 JAMIE EAKIN JERSEY SHORE PA 127 38 F 64 30-39 5:16:37.33 19:04/M
527 ANGELA BIERLY WATERVILLE PA 40 38 F 65 30-39 5:16:38.11 19:04/M
528 SHAUNA CHILTON COOPERSBURG PA 83 36 F 66 30-39 5:16:43.41 19:05/M
529 ALISON PORTANOVA STATE COLLEGE PA 389 45 F 61 40-49 5:16:58.84 19:06/M
530 RYAN MEYER PITTSBURGH PA 843 40 M 127 40-49 5:18:04.10 19:10/M
531 BRENDA HELWIG HUGHESVILLE PA 215 45 F 62 40-49 5:18:13.23 19:10/M
532 JOHN GOSS PUNXSUTAWNEY PA 710 60 M 13 60-99 5:18:22.58 19:11/M
533 LORRA ROSAMILIA PORT MATILDA PA 417 39 F 67 30-39 5:18:24.28 19:11/M
534 ROCCO ROSAMILIA PORT MATILDA PA 938 38 M 108 30-39 5:18:24.82 19:11/M
535 SCOTT SPENCER PITTSBURGH PA 988 47 M 128 40-49 5:18:49.33 19:12/M
536 JENN WATTS ALLISON PARK PA 1077 39 F 68 30-39 5:18:57.69 19:13/M
537 VICKI CASTELLUCCI APALACHIN NY 79 58 F 29 50-59 5:18:59.96 19:13/M
538 CHRIS ADAMS HASTINGS ON HUDSON NY 552 40 M 129 40-49 5:19:01.66 19:13/M
539 WILL SYLIANTENG CHALFONT PA 1015 42 M 130 40-49 5:19:02.41 19:13/M
540 GAYLE TRENBERTH NAZARETH PA 1094 46 F 63 40-49 5:19:26.70 19:15/M
541 DIANA O'BRIEN SCHNECKSVILLE PA 367 55 F 30 50-59 5:19:27.93 19:15/M
542 CHRIS GROPPE WAYNE PA 716 53 M 51 50-59 5:19:33.44 19:15/M
543 ROLAND JOHNSTON LOCK HAVEN PA 757 49 M 131 40-49 5:19:51.32 19:16/M
544 DANA MITRA STATE COLLEGE PA 335 45 F 64 40-49 5:20:09.87 19:17/M
545 FRANK MATOUSEK PITTSBURGH PA 832 54 M 52 50-59 5:20:50.56 19:20/M
546 KARA MOSTOWY PITTSBURGH PA 347 48 F 65 40-49 5:20:50.56 19:20/M
547 BILL HACKENBERG HOWARD PA 721 53 M 53 50-59 5:21:39.27 19:23/M
548 NICOLE LORUSSO CLARENCE PA 293 43 F 66 40-49 5:21:45.18 19:23/M
549 RICK EDLER WILLIAMSPORT PA 659 60 M 14 60-99 5:22:04.31 19:24/M
550 CASSIE MOREY COUDERSPORT PA 342 46 F 67 40-49 5:22:18.18 19:25/M
551 CRAIG MCNULTY STATE COLLEGE PA 841 47 M 132 40-49 5:22:33.79 19:26/M
552 BRANDON ECKERT LEBANON PA 656 34 M 109 30-39 5:23:18.24 19:29/M
553 JESSY SCHWENK WAVERLY NY 430 31 F 69 30-39 5:24:25.98 19:33/M
554 TRACY WRIGHT WAVERLY NY 547 43 F 68 40-49 5:24:25.99 19:33/M
555 DAWN STIFFLER JERSEY SHORE PA 487 41 F 69 40-49 5:24:40.66 19:33/M
556 ROBERT HENKE ABINGTON PA 736 50 M 54 50-59 5:24:45.97 19:34/M
557 CHRISTINE HENKE ABINGTON PA 217 48 F 70 40-49 5:24:46.58 19:34/M
558 KASEY BLESH LOCK HAVEN PA 44 1 F 7 1-19 5:25:02.45 19:35/M
559 DAVID APKER S WILLIAMSPORT PA 557 41 M 133 40-49 5:25:44.60 19:37/M
560 ELIZABETH OCONNELL PITTSBURGH PA 368 38 F 70 30-39 5:26:12.73 19:39/M
561 GRETCHEN WALTER NORTHUMBERLAND PA 523 47 F 71 40-49 5:26:21.15 19:40/M
562 KATHY CARRA BELLEFONTE PA 74 48 F 72 40-49 5:26:39.36 19:41/M
563 MELANI EBERSOLE STATE COLLEGE PA 128 53 F 31 50-59 5:26:39.76 19:41/M
564 SUSAN DILLMUTH-MILLER BETHLEHEM PA 117 49 F 73 40-49 5:27:22.48 19:43/M
565 EMILY FLOOK PERKASIE PA 145 27 F 28 20-29 5:27:26.23 19:43/M
566 KAREN MAZZOTTA BOALSBURG PA 310 52 F 32 50-59 5:27:56.94 19:45/M
567 ADDISON BLOOM WILLIAMSPORT PA 45 17 F 8 1-19 5:27:58.99 19:45/M
568 LISA BLOOM WILLIAMSPORT PA 46 45 F 74 40-49 5:27:59.21 19:45/M
569 CHRIS JONES LOCK HAVEN PA 759 51 M 55 50-59 5:28:40.33 19:48/M
570 AUDREY BURGOON PITTSBURGH PA 66 56 F 33 50-59 5:28:54.18 19:49/M
571 TERRY FULLER GIBSONIA PA 159 63 F 5 60-99 5:28:54.99 19:49/M
572 JOHN MILLER ELVERSON PA 852 58 M 56 50-59 5:29:17.82 19:50/M
573 WENDY RESHETAR HORSHAM PA 410 43 F 75 40-49 5:30:05.93 19:53/M
574 JOAN WELFLING LOCK HAVEN PA 531 60 F 6 60-99 5:30:25.74 19:54/M
575 JOHN MILLER BELLEFONTE PA 853 42 M 134 40-49 5:30:31.79 19:55/M
576 SUSAN KEMEN BEL AIR MD 257 55 F 34 50-59 5:30:42.40 19:55/M
577 CARRIE VANWHY COUDERSPORT PA 512 42 F 76 40-49 5:30:59.47 19:56/M
578 RICK RANKIN NEW PROVIDENCE PA 918 58 M 57 50-59 5:31:09.21 19:57/M
579 GREG SIWIK CLAIRTON PA 975 63 M 15 60-99 5:31:15.61 19:57/M
580 SCOTT LIPPY HANOVER PA 813 65 M 16 60-99 5:31:15.71 19:57/M
581 LAURA SUSICE-RADER SHIPPENSBURG PA 497 46 F 77 40-49 5:31:30.54 19:58/M
582 JULIE BURLISON GALETON PA 67 54 F 35 50-59 5:31:40.66 19:59/M
583 DANIELLE GOMOLA BELLEFONTE PA 179 25 F 29 20-29 5:31:49.96 19:59/M
584 JONATHAN LARSEN WINDERMERE FL 798 42 M 135 40-49 5:31:51.24 19:59/M
585 DESIREE COWIE GATES MILLS OH 101 57 F 36 50-59 5:31:52.64 20:00/M
586 GLENN COWIE GATES MILLS OH 627 56 M 58 50-59 5:31:52.89 20:00/M
587 ADELL WILLIAMS CANTON PA 539 39 F 71 30-39 5:31:54.74 20:00/M
588 CARL UNDERCOFLER WOODLAND PA 1025 80 M 17 60-99 5:32:01.65 20:00/M
589 JANE KONE HOWARD PA 272 64 F 7 60-99 5:32:01.65 20:00/M
590 ERIC KING QUAKERTOWN PA 779 37 M 110 30-39 5:32:03.79 20:00/M
591 ALEX FULLER GIBSONIA PA 697 31 M 111 30-39 5:32:17.55 20:01/M
592 SARAH FENNING CHURCHVILLE PA 141 28 F 30 20-29 5:32:23.68 20:01/M
593 JESSICA GOELZ PITTSBURGH PA 177 36 F 72 30-39 5:33:29.15 20:05/M
594 KEITH HOLMES WILLIAMSPORT PA 745 38 M 112 30-39 5:33:30.84 20:05/M
595 ANTHONY FREY MONTOURSVILLE PA 695 40 M 136 40-49 5:33:36.55 20:06/M
596 LUKE GARMAN MILL HALL PA 699 9 M 12 1-19 5:33:39.94 20:06/M
597 ADDIE BIRD NEWMANSTOWN PA 41 39 F 73 30-39 5:33:57.14 20:07/M
598 ELLEN BOWMAN CONESTOGA PA 54 22 F 31 20-29 5:34:25.64 20:09/M
599 CORY MARTIN EPHRATA PA 829 23 M 31 20-29 5:34:26.19 20:09/M
600 ALLISON EISENHOWER PETERSBURG PA 133 35 F 74 30-39 5:34:27.44 20:09/M
 
Place Name City Bib No Age Gender Age Group Total Time Pace
601 AWIL ABRAR ALEXANDRIA VA 551 35 M 113 30-39 5:34:55.38 20:11/M
602 ROD KERSTETTER MILTON PA 773 60 M 18 60-99 5:36:05.82 20:15/M
603 JULIE SCHROETER LOCK HAVEN PA 426 27 F 32 20-29 5:36:34.67 20:17/M
604 MAUREEN STATHES BELLEFONTE PA 480 56 F 37 50-59 5:36:37.17 20:17/M
605 LAURIE GARMAN MILL HALL PA 165 36 F 75 30-39 5:36:45.10 20:17/M
606 DYLAN KOSTZEWA SINKING SPRING PA 792 14 M 13 1-19 5:36:51.83 20:18/M
607 MATT JOHNSON ALLISON PARK PA 756 37 M 114 30-39 5:37:22.16 20:19/M
608 ROBERT MAHONSKI TROUTRUN PA 825 64 M 19 60-99 5:37:31.41 20:20/M
609 MELINDA PROBERT YORK PA 395 45 F 78 40-49 5:37:53.16 20:21/M
610 TAB BOWES LOCK HAVEN PA 53 51 F 38 50-59 5:38:12.67 20:22/M
611 ALENA GOURLEY PUNXSUTAWNEY PA 185 36 F 76 30-39 5:39:02.90 20:25/M
612 LARRY GOOD GAP PA 709 61 M 20 60-99 5:39:23.15 20:27/M
613 STEPHANIE BEADLE MONTOURSVILLE PA 30 39 F 77 30-39 5:39:32.64 20:27/M
614 GARY BEADLE MONTOURSVILLE PA 566 40 M 137 40-49 5:39:32.90 20:27/M
615 CHET GALLAGHER TYRONE PA 698 47 M 138 40-49 5:39:41.89 20:28/M
616 STEPHANIE GALLAGHER TYRONE PA 163 42 F 79 40-49 5:39:42.64 20:28/M
617 ERIN KENNEDY LOCK HAVEN PA 258 41 F 80 40-49 5:39:43.64 20:28/M
618 TAMI FOSBURG CENTERVILLE PA 148 50 F 39 50-59 5:42:12.53 20:37/M
619 SHERRY SHANK MARION CENTER PA 439 59 F 40 50-59 5:42:12.87 20:37/M
620 MELISSA O'MALLEY HONEY BROOK PA 370 38 F 78 30-39 5:42:22.37 20:37/M
621 BETH SIMON CENTRE HALL PA 450 39 F 79 30-39 5:42:29.63 20:38/M
622 RICHARD CZYZYK UNIVERSITY PARK PA 635 36 M 115 30-39 5:42:30.73 20:38/M
623 SUSAN WOOLEY CENTERVILLE PA 546 43 F 81 40-49 5:42:32.10 20:38/M
624 ELENA DAISLEY COUDERSPORT PA 105 43 F 82 40-49 5:43:05.55 20:40/M
625 HEATHER SHADOW BELLEFONTE PA 434 41 F 83 40-49 5:43:40.36 20:42/M
626 SUE STACKHOUSE MONTOURSVILLE PA 476 60 F 8 60-99 5:44:04.50 20:44/M
627 KATHLEEN LAVELLE LOCK HAVEN PA 285 27 F 33 20-29 5:44:06.61 20:44/M
628 TODD KARSTETTER MILL HALL PA 764 55 M 59 50-59 5:44:10.30 20:44/M
629 ANDY CLAYTON HUGHESVILLE PA 610 39 M 116 30-39 5:44:40.85 20:46/M
630 NICHOLAS SCHULTZ CHURCHVILLE PA 960 31 M 117 30-39 5:44:48.40 20:46/M
631 ISABELLA FAVE MUNCY PA 138 15 F 9 1-19 5:45:12.35 20:48/M
632 SOPHIA SPRINGMAN FORKSVILLE PA 475 14 F 10 1-19 5:45:12.60 20:48/M
633 MIKE HOLTZINGER JULIAN PA 746 55 M 60 50-59 5:46:06.42 20:51/M
634 EMILY HARSANYI LOCK HAVEN PA 205 37 F 80 30-39 5:46:07.84 20:51/M
635 PERRY ARBOGAST MUNCY PA 558 60 M 21 60-99 5:46:10.96 20:51/M
636 JENNIFER GAGNON PITTSBURGH PA 160 29 F 34 20-29 5:46:18.88 20:52/M
637 NAOMI SPOTTS NORTH BEND PA 471 29 F 35 20-29 5:46:28.29 20:52/M
638 HEATHER BELLES MUNSON PA 35 41 F 84 40-49 5:46:55.35 20:54/M
639 PAMELA KISKO WESTPORT PA 267 59 F 41 50-59 5:47:24.26 20:56/M
640 ASHLEY KISKO DALLAS TX 266 29 F 36 20-29 5:47:24.66 20:56/M
641 DANIELLE WILSON WOOLRICH PA 542 49 F 85 40-49 5:47:30.78 20:56/M
642 LIANNE ASBURY JENKINS TWP PA 14 39 F 81 30-39 5:47:43.78 20:57/M
643 LISA SIMPSON HARRISBURG PA 451 42 F 86 40-49 5:47:45.24 20:57/M
644 AMANDA YOHN HUGHESVILLE PA 549 28 F 37 20-29 5:47:45.84 20:57/M
645 BRITTANY PATAKY MECHANICSBURG PA 373 28 F 38 20-29 5:48:32.51 21:00/M
646 VICKIE BRYANT MECHANICSVILLE VA 65 48 F 87 40-49 5:49:27.72 21:03/M
647 AUBREY MERKLE WEXFORD PA 320 40 F 88 40-49 5:49:27.93 21:03/M
648 TEISHA EISMANN HUMMELSTOWN PA 134 42 F 89 40-49 5:52:38.78 21:15/M
649 BOBBY EISMANN HUMMELSTOWN PA 661 40 M 139 40-49 5:52:39.29 21:15/M
650 GARY GEHRET ELIZABETHTOWN PA 702 61 M 22 60-99 5:52:40.79 21:15/M
651 MARY ELLEN SHOW BELLEFONTE PA 447 45 F 90 40-49 5:52:45.50 21:15/M
652 BARRY DOBIL OREFIELD PA 649 40 M 140 40-49 5:52:54.49 21:16/M
653 LISA WAITE BELLEFONTE PA 516 39 F 82 30-39 5:53:01.21 21:16/M
654 KIMBERLYN NELSON STATE COLLEGE PA 362 58 F 42 50-59 5:53:40.28 21:18/M
655 EMMALYN CONTI LOCK HAVEN PA 97 34 F 83 30-39 5:54:38.49 21:22/M
656 STEVE FEDDER SOUTH WILLIAMSPORT PA 675 63 M 23 60-99 5:55:06.26 21:23/M
657 LAURA MURNYACK CLARENCE PA 355 36 F 84 30-39 5:55:36.26 21:25/M
658 STEPHANI FRYE PORT MATILDA PA 157 45 F 91 40-49 5:55:36.33 21:25/M
659 SCOTT COX MILESBURG PA 628 50 M 61 50-59 5:56:25.51 21:28/M
660 AMANDA GOTTSHALL LOCK HAVEN PA 183 38 F 85 30-39 5:56:43.97 21:29/M
661 ELIZABETH SERPENTINE WEST CHESTER PA 432 40 F 92 40-49 5:56:54.38 21:30/M
662 SANDY REDCAY MOHNTON PA 401 62 F 9 60-99 5:56:55.21 21:30/M
663 CAROL BERG MOHNTON PA 38 62 F 10 60-99 5:56:55.41 21:30/M
664 CATRIONA STANDFIELD SYRACUSE NY 1069 30 F 86 30-39 5:57:27.49 21:32/M
665 KRISSY HARSTEAD DUBOISTOWN PA 206 28 F 39 20-29 5:58:10.99 21:35/M
666 DANIEL LONG JERSEY SHORE PA 817 39 M 118 30-39 5:58:11.40 21:35/M
667 MATTHEW SURBER WEST RIVER MD 1011 35 M 119 30-39 5:58:50.48 21:37/M
668 MEGAN KRAUS SWEDESBORO NJ 274 27 F 40 20-29 5:59:07.73 21:38/M
669 CHRISSY JONES LOCK HAVEN PA 249 49 F 93 40-49 6:00:00.72 21:41/M
670 AMANDA HEISEY-GALLAGHER ELIZABETHTOWN PA 214 40 F 94 40-49 6:00:14.19 21:42/M
671 CHRIS VANDRUFF ATHENS PA 1029 45 M 141 40-49 6:00:34.97 21:43/M
672 HUNTER BLOOM WILLIAMSPORT PA 580 19 M 14 1-19 6:01:30.71 21:47/M
673 KEVIN ESH NEW HOLLAND PA 668 25 M 32 20-29 6:01:38.21 21:47/M
674 GINA THOMPSON BELLEFONTE PA 505 34 F 87 30-39 6:01:48.68 21:48/M
675 PAM SLUSSER BLOOMSBURG PA 457 38 F 88 30-39 6:02:01.50 21:48/M
676 DANA CARLSON ALEXANDRIA VA 73 43 F 95 40-49 6:04:45.20 21:58/M
677 MARGIE GALLAGHER ABINGDON MD 162 59 F 43 50-59 6:05:29.18 22:01/M
678 JAMIE REEVES STREET MD 923 54 M 62 50-59 6:05:29.19 22:01/M
679 BETTY SHOCK FALLSTON MD 1086 50 F 44 50-59 6:05:30.43 22:01/M
680 DENNIS WOLFE WILLIAMSPORT PA 1057 66 M 24 60-99 6:06:20.99 22:04/M
681 BARBARA FEDELE MCELHATTAN PA 140 50 F 45 50-59 6:08:14.12 22:11/M
682 JIM FEDELE MCELHATTAN PA 676 52 M 63 50-59 6:08:14.53 22:11/M
683 MARGARET MCCRACKEN JERSEY SHORE PA 313 37 F 89 30-39 6:09:05.15 22:14/M
684 JENN ULMER MILLVILLE PA 510 45 F 96 40-49 6:10:26.59 22:19/M
685 MARY JOHNSON BEL AIR MD 245 63 F 11 60-99 6:10:42.57 22:20/M
686 DOUGLAS CARVELL MOUNT PLEASANT MILLS PA 602 53 M 64 50-59 6:10:48.38 22:20/M
687 KIMBERLY GREGORY PITTSBURGH PA 195 52 F 46 50-59 6:11:18.60 22:22/M
688 ANDY COSENTINE WILLIAMSPORT PA 624 47 M 142 40-49 6:11:48.75 22:24/M
689 HOLLY SUTLIFF BALTIMORE MD 498 41 F 97 40-49 6:12:20.32 22:26/M
690 CHRIS TROWBRIDGE LOCK HAVEN PA 1023 37 M 120 30-39 6:12:20.53 22:26/M
691 EDDIE GAUTIER FT. WORTH TX 701 45 M 143 40-49 6:13:13.47 22:29/M
692 CODY STROUSE 17702 PA 1007 36 M 121 30-39 6:13:14.51 22:29/M
693 HOLLY STROUSE SOUTH WILLIAMSPORT PA 494 36 F 90 30-39 6:13:14.70 22:29/M
694 BARB KOSINSKI WARREN OH 273 46 F 98 40-49 6:13:19.21 22:29/M
695 STEPHANIE FORD POLK PA 147 37 F 91 30-39 6:13:19.50 22:29/M
696 KELSEY FOLLMER WILLIAMSPORT PA 146 29 F 41 20-29 6:13:23.24 22:30/M
697 JENNIFER RAINERI YORK PA 399 41 F 99 40-49 6:14:00.54 22:32/M
698 ED DESANTIS BINGHAMTON NY 642 54 M 65 50-59 6:17:51.82 22:46/M
699 JON SAGER LANCASTER PA 949 24 M 33 20-29 6:18:18.10 22:47/M
700 NATE SAGER FREDERICK MD 950 34 M 122 30-39 6:18:18.71 22:47/M
 
Place Name City Bib No Age Gender Age Group Total Time Pace
701 ANNA KING WILLIAMSPORT PA 263 28 F 42 20-29 6:18:18.82 22:47/M
702 LIZ FOX LITITZ PA 151 24 F 43 20-29 6:18:19.82 22:47/M
703 JEANETTE ROBERTS PHOENIXVILLE PA 413 44 F 100 40-49 6:18:35.99 22:48/M
704 KYLE RUDE WILLIAMSPORT PA 942 49 M 144 40-49 6:19:17.67 22:51/M
705 ROSEMARIE FOSTER LEWISBERRY PA 150 55 F 47 50-59 6:19:20.17 22:51/M
706 JAMES KARICHNER LOCK HAVEN PA 763 45 M 145 40-49 6:19:54.22 22:53/M
707 CATHY GIBSON JERSEY SHORE PA 171 49 F 101 40-49 6:20:10.51 22:54/M
708 JENNIFER LENIG HALIFAX PA 288 41 F 102 40-49 6:20:21.93 22:55/M
709 JOHN MC HUGH HAVERTOWN PA 836 50 M 66 50-59 6:21:55.39 23:00/M
710 LYNETTE BOWER S WILLIAMSPORT PA 52 57 F 48 50-59 6:22:46.69 23:03/M
711 DOUGLAS BOWER SOUTH WILLIAMSPORT PA 588 58 M 67 50-59 6:22:47.38 23:04/M
712 DAVID STEWART PITTSBURGH PA 995 57 M 68 50-59 6:23:17.69 23:05/M
713 DIANE STEWART PITTSBURGH PA 485 56 F 49 50-59 6:23:18.35 23:05/M
714 RUSSELL WAGNER HARRISBURG PA 1034 66 M 25 60-99 6:24:27.13 23:10/M
715 HOWARD GINSBURG PITTSBURGH PA 704 44 M 146 40-49 6:24:40.52 23:10/M
716 RANDALL WEAVER MILLVILLE PA 1044 49 M 147 40-49 6:24:54.26 23:11/M
717 CAROL HERSHEY MEDIA PA 219 54 F 50 50-59 6:25:28.15 23:13/M
718 BETH HILL SOUTH WILLIAMSPORT PA 221 56 F 51 50-59 6:27:31.20 23:21/M
719 WENDY HOOPER HILLSGROVE PA 227 54 F 52 50-59 6:27:47.98 23:22/M
720 SARA MARKER JULIAN PA 306 31 F 92 30-39 6:28:41.11 23:25/M
721 CONNIE MUMMEY BLOOMSBURG PA 350 61 F 12 60-99 6:29:21.82 23:27/M
722 JANANN TODD WILLIAMSPORT PA 506 50 F 53 50-59 6:30:43.52 23:32/M
723 CHRISTIAN GLOTFELTY FREDERICK MD 706 39 M 123 30-39 6:32:03.94 23:37/M
724 SUSAN TAYLOR BELLEFONTE PA 503 59 F 54 50-59 6:32:41.18 23:39/M
725 CHIEF TAYLOR BELLEFONTE PA 1018 66 M 26 60-99 6:32:41.38 23:39/M
726 CHRISTA SHREINER HUGHESVILLE PA 448 41 F 103 40-49 6:33:01.95 23:41/M
727 ELRI MOGGEE MARS PA 336 43 F 104 40-49 6:33:07.67 23:41/M
728 SARAH DITTOE PITTSBURGH PA 119 38 F 93 30-39 6:33:22.15 23:42/M
729 OWEN BLOOM WILLIAMSPORT PA 581 14 M 15 1-19 6:35:45.87 23:50/M
730 GLOTFELTY CHRISTAIN FREDRICKSBURG MD 1090 32 F 94 30-39 6:36:46.32 23:54/M
731 TRAVIS DIXON FAIRFAX VA 648 39 M 124 30-39 6:36:48.75 23:54/M
732 TANYA FREY MONTOURSVILLE PA 154 39 F 95 30-39 6:38:41.14 24:01/M
733 BJ SPRINGMAN FORKSVILLE PA 473 39 F 96 30-39 6:38:41.40 24:01/M
734 SARAH BACON CLARENCE PA 16 39 F 97 30-39 6:38:41.96 24:01/M
735 PHIL HESSER CROCHERON MD 740 66 M 27 60-99 6:39:05.89 24:02/M
736 TRACY KERPER PERKASIE PA 260 39 F 98 30-39 6:41:11.80 24:10/M
737 JENNIFER BISHOP QUAKERTOWN PA 42 43 F 105 40-49 6:41:19.12 24:11/M
738 MIRANDA WINTER MUNCY PA 543 25 F 44 20-29 6:41:36.22 24:12/M
739 MICHAEL LOWE MUNCY PA 822 46 M 148 40-49 6:41:42.37 24:12/M
740 DEBORAH HULL BELLEFONTE PA 236 62 F 13 60-99 6:41:43.59 24:12/M
741 MICHELLE CHRONISTER MUNCY PA 86 37 F 99 30-39 6:43:01.11 24:17/M
742 CHANTELLE HEGGENSTALLER LOCK HAVEN PA 211 24 F 45 20-29 6:43:13.95 24:17/M
743 JACKIE BAREUTHER LANCASTER PA 22 55 F 55 50-59 6:43:15.99 24:18/M
744 TRACY CLAYTON HUGHESVILLE PA 89 38 F 100 30-39 6:43:16.37 24:18/M
745 KIMBERLEY PATRICK BIRD IN HAND PA 374 56 F 56 50-59 6:43:18.83 24:18/M
746 MICHAEL SMITH LOCKWOOD NY 1893 40 M 149 40-49 6:43:27.80 24:18/M
747 AMY SWART PENNSDALE PA 499 41 F 106 40-49 6:44:10.96 24:21/M
748 RACHEL CASPER NORTH BEND PA 77 39 F 101 30-39 6:46:15.59 24:28/M
749 BRAD CASPER NORTH BEND PA 603 38 M 125 30-39 6:46:17.34 24:28/M
750 AUDRI FRISBIE WAVERLY NY 155 19 F 11 1-19 6:46:33.46 24:29/M
751 MONIKA MILLER WILLIAMSPORT PA 329 37 F 102 30-39 6:46:36.31 24:30/M
752 JENN BRAUN LOCK HAVEN PA 56 37 F 103 30-39 6:46:44.84 24:30/M
753 DON BURGESS TOWANDA PA 598 66 M 28 60-99 6:46:49.75 24:30/M
754 JOANN BARNHART MONTGOMERY PA 23 56 F 57 50-59 6:47:19.29 24:32/M
755 STEPHANIE PILLING CENTREVILLE VA 385 36 F 104 30-39 6:47:19.87 24:32/M
756 STEPHANIE PROBERT RENOVO PA 396 38 F 105 30-39 6:47:27.25 24:33/M
757 PATRICK COLLINS HARRISBURG PA 618 53 M 69 50-59 6:47:59.83 24:35/M
758 PATRICK VILLELLA PUNXSUTAWNEY PA 1033 54 M 70 50-59 6:48:01.47 24:35/M
759 LISA STAFFORD WARRENTON VA 478 46 F 107 40-49 6:48:34.62 24:37/M
760 SYDNEY KELLY CULPEPER VA 256 45 F 108 40-49 6:48:39.55 24:37/M
761 WENDY SMITH MOON TOWNSHIP PA 462 36 F 106 30-39 6:49:50.82 24:41/M
762 FRANCIE SUKITCH MOON TWP PA 495 46 F 109 40-49 6:50:17.66 24:43/M
763 MEGAN NEUFER WILLIAMSPORT PA 363 34 F 107 30-39 6:51:06.87 24:46/M
764 ANDREW NEUFER WILLIAMSPORT PA 882 33 M 126 30-39 6:51:09.33 24:46/M
765 MELISSA JACKSON JERSEY SHORE PA 240 37 F 108 30-39 6:51:32.40 24:47/M
766 RUTH PRIESTER WILLIAMSPORT PA 393 48 F 110 40-49 6:53:02.78 24:53/M
767 DON FOSTER JR BEECH CREEK PA 690 44 M 150 40-49 6:54:56.43 25:00/M
768 CHRIS FOSTER HOWARD PA 149 46 F 111 40-49 6:54:56.77 25:00/M
769 DAWN ROSENBAUM PINEGROVE MILLS PA 1088 28 F 46 20-29 6:56:31.92 25:05/M
770 CARRIE GENTZYEL LOCK HAVEN PA 170 30 F 109 30-39 6:57:05.73 25:08/M
771 STEPHANIE SCRIMSHAW RENOVO PA 431 28 F 47 20-29 6:57:07.15 25:08/M
772 RYAN STEELMAN YORK PA 993 40 M 151 40-49 6:58:51.73 25:14/M
773 TRACI STEELMAN YORK PA 482 39 F 110 30-39 6:58:52.74 25:14/M
774 MELISSA GREEN RENOVO PA 191 40 F 112 40-49 6:58:55.64 25:14/M
775 BRIANA SHEFFER ALTOONA PA 443 38 F 111 30-39 7:00:35.58 25:20/M
776 RICK BLOOM WILLIAMSPORT PA 582 43 M 152 40-49 7:00:40.86 25:20/M
777 JONATHON LAUTEN QUARRYVILLE PA 802 31 M 127 30-39 7:01:26.46 25:23/M
778 AMY DAVENPORT EPHRATA PA 107 29 F 48 20-29 7:01:27.95 25:23/M
779 KRISTEN SMITH CATASAUQUA PA 460 34 F 112 30-39 7:01:42.97 25:24/M
780 BOBBI PEIFFER BETHEL PA 377 43 F 113 40-49 7:04:55.18 25:36/M
781 BRAD PEIFFER BETHEL PA 900 44 M 153 40-49 7:04:55.94 25:36/M
782 DONNA WAGNER HARRISBURG PA 515 50 F 58 50-59 7:11:31.63 26:00/M
783 ILIANA KALAMAFONI WILLIAMSPORT PA 252 41 F 114 40-49 7:12:33.87 26:03/M
784 HEATHER CROWELL MUNCY PA 103 45 F 115 40-49 7:13:44.11 26:08/M
785 CELISSA MCCAULEY LOCK HAVEN PA 311 41 F 116 40-49 7:17:14.54 26:20/M
786 TONI GALBRAITH MILL HALL PA 161 49 F 117 40-49 7:17:14.83 26:20/M
787 ROXANNE GOTTSHALL LOCK HAVEN PA 184 37 F 113 30-39 7:17:15.34 26:20/M
788 ILA RAE MICHAEL MUNCY PA 322 56 F 59 50-59 7:17:34.58 26:22/M
789 JENNIFER HOLDREN JERSEY SHORE PA 225 33 F 114 30-39 7:17:37.55 26:22/M
790 LORI KIEHL PITTSBURGH PA 262 41 F 118 40-49 7:17:49.16 26:22/M
791 CARRIE CHISHOLM PITTSBURGH PA 84 39 F 115 30-39 7:17:49.37 26:22/M
792 MATTIE PORTER PITTSBURGH PA 390 34 F 116 30-39 7:17:49.82 26:22/M
793 AMY SCHULMAN PITTSBURGH PA 427 44 F 119 40-49 7:18:05.48 26:23/M
794 DANIELLE PIRAIN PITTSBURGH PA 386 42 F 120 40-49 7:18:05.48 26:23/M
795 YOLANDA SCHUMAN BRIDGEVILLE PA 428 54 F 60 50-59 7:18:05.96 26:23/M
796 LALA NOVAKOVICH PITTSBURGH PA 365 52 F 61 50-59 7:23:24.28 26:43/M
797 JIM EIRKSON GIBSONIA PA 660 48 M 154 40-49 7:23:33.32 26:43/M
798 CHRISTIE ALBA SELLERSVILLE PA 4 39 F 117 30-39 7:24:03.52 26:45/M
799 LYNDSEY WEIDOW ST MARYS PA 529 32 F 118 30-39 7:24:43.50 26:47/M
800 KATIE WEIDENBOERNER SAINT MARYS PA 528 33 F 119 30-39 7:24:43.91 26:47/M
 
Place Name City Bib No Age Gender Age Group Total Time Pace
801 ANTHONY FELTY MOUNT JOY PA 678 45 M 155 40-49 7:24:46.52 26:48/M
802 ERNIE DONOVAN CATASAUQUA PA 650 39 M 128 30-39 7:29:04.93 27:03/M
803 JENNIFER DEMETRO LOCK HAVEN PA 114 25 F 49 20-29 7:31:46.21 27:13/M
804 SUSAN MUTHLER LOCK HAVEN PA 358 50 F 62 50-59 7:32:32.22 27:16/M
805 TAMMY MCCLOSKEY HOWARD PA 312 49 F 121 40-49 7:32:32.23 27:16/M
806 JENNIFER HAGAMAN LOCK HAVEN PA 199 43 F 122 40-49 7:32:32.63 27:16/M
807 FIDEL CRUZ ALEXANDRIA VA 632 47 M 156 40-49 7:33:34.94 27:19/M
808 JANINE BAILEY TOWNSEND DE 17 40 F 123 40-49 7:34:19.15 27:22/M
809 ASTRID ARROYO PITTSBURGH PA 13 46 F 124 40-49 7:36:01.75 27:28/M
810 KEIRA MILLER SOUTH WILLIAMSPORT PA 328 30 F 120 30-39 7:36:53.43 27:31/M
811 JESSICA BOWER WILLIAMSPORT PA 51 44 F 125 40-49 7:36:54.67 27:31/M
812 AMANDA SMITH WILLIAMSPORT PA 458 39 F 121 30-39 7:36:54.91 27:31/M
813 MISTY JO MORSE MONROETON PA 346 41 F 126 40-49 7:37:02.85 27:32/M
814 BRANDIE CONWAY LOCK HAVEN PA 98 37 F 122 30-39 7:37:17.41 27:33/M
815 AMBER MALEK MCELHATTAN PA 301 37 F 123 30-39 7:37:17.91 27:33/M
816 RON KEEFER HOOSICK FALLS NY 767 49 M 157 40-49 7:38:35.96 27:38/M
817 JENNA KEEFER HOOSICK FALLS NY 254 21 F 50 20-29 7:38:36.58 27:38/M
818 BECKY PROCTOR MILL HALL PA 397 48 F 127 40-49 7:42:09.16 27:50/M
819 SCOTT SCHALLER WASHINGTON NJ 956 38 M 129 30-39 7:46:19.55 28:05/M
820 MICHAEL DEAN LANCASTER PA 640 42 M 158 40-49 7:46:52.57 28:07/M
821 CARRIE STEELE-DEAN LANCASTER PA 481 41 F 128 40-49 7:46:53.18 28:08/M
822 HARM REXROTH WINDSOR PA 926 58 M 71 50-59 7:46:53.33 28:08/M
823 CHARLIZE KEPLER RENOVO PA 259 13 F 12 1-19 7:47:57.82 28:11/M
824 SHELLEY BARRY ATHENS PA 24 56 F 63 50-59 7:51:36.30 28:25/M
825 TRACEY WHITE MILL HALL PA 535 48 F 129 40-49 7:51:36.80 28:25/M
826 JENNIFER DRIGGERS MIFFLINBURG PA 123 42 F 130 40-49 7:54:27.17 28:35/M
827 DAVID KAHLER DANVILLE PA 762 64 M 29 60-99 7:54:27.77 28:35/M
828 HANNA KAHLER DANVILLE PA 251 24 F 51 20-29 7:54:27.82 28:35/M
829 JOANNE HEIMER JERSEY SHORE PA 213 68 F 14 60-99 7:57:42.85 28:47/M
830 C. EDWARD MITCHELL MONTOURSVILLE PA 861 74 M 30 60-99 7:59:38.22 28:54/M
831 BRANDI ESLICK BLANCHARD PA 137 35 F 124 30-39 7:59:59.72 28:55/M
832 JUSTINE YEAGER MUNCY PA 548 19 F 13 1-19 8:03:43.89 29:08/M
833 LOGAN DRIGGERS MIFFLINBURG PA 652 13 M 16 1-19 8:06:28.17 29:18/M
834 DONNA KEELER LOCK HAVEN PA 255 75 F 15 60-99 8:08:16.93 29:25/M
835 LESLIE SWARTZ HUGHESVILLE PA 500 46 F 131 40-49 8:16:18.79 29:54/M
836 NINA JOHNSTONBAUGH MILL HALL PA 247 30 F 125 30-39 8:18:17.93 30:01/M
837 COLLEEN FLOOD ALEXANDRIA VA 144 49 F 132 40-49 8:18:18.34 30:01/M
838 AMBER STEWART NORTH BEND PA 484 28 F 52 20-29 8:18:25.64 30:02/M
839 ALISA PETROWSKI ORANGEVILLE PA 381 35 F 126 30-39 8:19:08.31 30:04/M
840 JOHN HAVEL BUENA VISTA PA 730 65 M 31 60-99 8:21:35.41 30:13/M
841 RAHIMA ULLAH HERNDON VA 509 38 F 127 30-39 8:27:12.58 30:33/M
842 JENNIFER FRANTZ HUGHESVILLE PA 152 26 F 53 20-29 8:29:03.48 30:40/M
843 MEGAN WALDMAN WILLIAMSPORT PA 518 28 F 54 20-29 8:36:55.92 31:08/M
844 CHARLES BURZYNSKI WILLIAMSPORT PA 599 68 M 32 60-99 8:36:56.74 31:08/M
845 KATHY GILLEN LOCK HAVEN PA 175 64 F 16 60-99 8:37:06.90 31:09/M
846 FRANK SHYMATTA MONONGAHELA PA 973 66 M 33 60-99 8:41:35.88 31:25/M
847 FREDONNA GAUTIER FT. WORTH TX 168 46 F 133 40-49 8:49:19.54 31:53/M
848 MARTIN MCMAHON SIMSBURY CT 839 55 M 72 50-59 8:53:38.26 32:09/M
849 LIZA MCMAHON SIMSBURY CT 316 52 F 64 50-59 8:53:39.22 32:09/M
850 ELIZABETH TONER POTTSTOWN PA 507 51 F 65 50-59 8:59:39.97 32:31/M
851 TONI ARBOGAST MUNCY PA 10 60 F 17 60-99 9:20:06.95 33:44/M
852 HUGH DARLINGTON ELIZABETHTOWN PA 638 61 M 34 60-99 9:35:07.18 34:39/M
853 LOUISE HYDER-DARLINGTON ELIZABETHTOWN PA 238 57 F 66 50-59 9:35:36.71 34:40/M
Top  

Hyner 50K

Place Name City Bib No Age Gender Age Group Total Time Pace
1 WESLEY ATKINSON MILL HALL PA 1508 19 M 1 1-19 4:41:32.37 9:16/M
2 ADAM RUSSELL ROME PA 1793 39 M 1 30-39 4:46:09.35 9:25/M
3 ANDREW SIMPSON YORK PA 1818 29 M 1 20-29 4:46:40.53 9:26/M
4 RYAN WELTS TAMWORTH NH 1871 37 M 2 30-39 4:57:25.99 9:47/M
5 DAN ESH GORDONVILLE PA 1593 26 M 2 20-29 5:01:10.62 9:54/M
6 PHILLIP PAWLUKOVICH FOREST HILL MD 1762 39 M 3 30-39 5:04:54.11 10:02/M
7 JUDD LORSON WEST HARTFORD CT 1709 34 M 4 30-39 5:08:02.58 10:08/M
8 SCOTT LESH MECHANICSBURG PA 1701 34 M 5 30-39 5:13:28.83 10:19/M
9 AARON ELLISON ELLICOTT CITY MD 1591 42 M 1 40-49 5:14:28.71 10:21/M
10 PRESTON THOMAS PHILADELPHIA PA 1847 42 M 2 40-49 5:14:41.34 10:21/M
11 DONALD PALMER PHILADELPHIA PA 1758 31 M 6 30-39 5:16:56.58 10:26/M
12 JOEL NOAL HOLLIDAYSBURG PA 1750 55 M 1 50-59 5:17:28.78 10:27/M
13 AARON ILES CATONSVILLE MD 1660 26 M 3 20-29 5:18:08.49 10:28/M
14 NATHAN SPENCER CHERRY HILL NJ 1828 38 M 7 30-39 5:22:17.30 10:36/M
15 TODD MCCORMICK PITTSBURGH PA 1719 32 M 8 30-39 5:22:51.31 10:37/M
16 SEAN O'CONNOR PHILLIPSBURG NJ 1753 38 M 9 30-39 5:24:05.37 10:40/M
17 NEVIN ATKINSON MILL HALL PA 1507 18 M 2 1-19 5:25:12.64 10:42/M
18 JOHN JOHNSON ULSTER PA 1666 45 M 3 40-49 5:26:43.46 10:45/M
19 JOSHUA GAVITT HUGHESVILLE PA 1618 43 M 4 40-49 5:26:43.46 10:45/M
20 DYLAN GERATY MILL HALL PA 1620 21 M 4 20-29 5:26:54.25 10:45/M
21 TOMAS CASTILLO PITTSBURGH PA 1557 30 M 10 30-39 5:28:15.91 10:48/M
22 ANTHONY WALLICK MARIETTA PA 1865 27 M 5 20-29 5:28:25.87 10:48/M
23 ERIC FERREE SEVEN VALLEYS PA 1599 39 M 11 30-39 5:31:17.20 10:54/M
24 STEPHEN HAZLETT WELLSBORO PA 1643 39 M 12 30-39 5:32:08.33 10:56/M
25 XAVIER PERREAULT TERREBONNE QC 1765 27 M 6 20-29 5:35:07.80 11:01/M
26 ALEX GALASSO BRIDGEWATER NJ 1614 26 M 7 20-29 5:36:22.59 11:04/M
27 DEREK SCHULTZ POTTSTOWN PA 1804 39 M 13 30-39 5:36:41.31 11:05/M
28 BRETT SHELTON CORNING NY 1812 46 M 5 40-49 5:37:30.92 11:06/M
29 BARRETT ALLISON JERSEY SHORE PA 1503 35 M 14 30-39 5:38:21.65 11:08/M
30 COLE MORTELLARO VENETIA PA 1738 35 M 15 30-39 5:40:45.12 11:13/M
31 CLAYTON DICKERSON HELLERTOWN PA 1581 25 M 8 20-29 5:40:46.88 11:13/M
32 SCOTT SNELL EGG HARBOR TWP NJ 1825 38 M 16 30-39 5:42:02.30 11:15/M
33 MICHAEL MCDONNELL COLLINGSWOOD NJ 1720 33 M 17 30-39 5:44:04.74 11:19/M
34 JONATHAN KUEHNLE COLUMBUS OH 1691 40 M 6 40-49 5:44:13.51 11:19/M
35 JEFF SHETLER SAINT THOMAS PA 1813 46 M 7 40-49 5:44:46.50 11:20/M
36 AARON HORRELL BELLE VERNON PA 1658 36 M 18 30-39 5:45:42.32 11:22/M
37 DENNIS YONKIN LEWISBURG PA 1886 54 M 2 50-59 5:50:24.56 11:32/M
38 GILBERT BALLIET WATSONTOWN PA 1515 32 M 19 30-39 5:50:25.22 11:32/M
39 JENNY RODGERS JERSEY SHORE PA 1788 32 F 1 30-39 5:51:10.24 11:33/M
40 HANS SCHNEIDER LEBANON PA 1802 51 M 3 50-59 5:54:17.52 11:39/M
41 MICHELLE BENSHOFF WAYNESBORO PA 1527 43 F 1 40-49 5:54:50.12 11:40/M
42 MICHAEL WINGLER ERIE PA 1879 34 M 20 30-39 5:56:32.16 11:44/M
43 DENNY MITTS WAYNESBORO PA 1733 38 M 21 30-39 5:57:20.99 11:45/M
44 CHRISTOPHER KUEBLER ALLENTOWN PA 1690 34 M 22 30-39 5:57:56.84 11:46/M
45 ANDREW WIEWEL SYRACUSE NY 1875 39 M 23 30-39 5:59:18.71 11:49/M
46 BRIAN LUBENOW BIRDSBORO PA 1711 39 M 24 30-39 6:00:25.32 11:51/M
47 AMANDA DEBEVC CHAGRIN FALLS OH 1575 40 F 2 40-49 6:01:34.14 11:54/M
48 GRANT COLE WELLSBORO PA 1564 30 M 25 30-39 6:02:16.72 11:55/M
49 THOMAS MCNERNEY WILLIAMSPORT PA 1723 43 M 8 40-49 6:03:00.20 11:56/M
50 RHODA SMOKER BIRDSBORO PA 1824 31 F 2 30-39 6:03:30.35 11:57/M
51 JAMES HEUN BURTON OH 1652 59 M 4 50-59 6:04:36.93 12:00/M
52 PETE GROTH DOUGLASSVILLE PA 1631 49 M 9 40-49 6:05:34.23 12:02/M
53 STACEY HIBBLER LOCK HAVEN PA 1653 54 M 5 50-59 6:06:36.96 12:04/M
54 TYLER SNYDER EAST FREEDOM PA 1827 27 M 9 20-29 6:06:45.11 12:04/M
55 ADAM KOLB LIBERTY PA 1687 36 M 26 30-39 6:07:05.87 12:05/M
56 JAIME PECA ROCHESTER NY 1763 36 F 3 30-39 6:07:41.32 12:06/M
57 CARLOS DARBY PENN HILLS PA 1573 29 M 10 20-29 6:08:00.65 12:06/M
58 ANDRES HERNANDEZ DOWNINGTOWN PA 1650 48 M 10 40-49 6:10:00.27 12:10/M
59 ERIN SURETTE TOWSON MD 1843 36 F 4 30-39 6:11:09.71 12:13/M
60 RON ROVANSEK PORT MATILDA PA 1791 50 M 6 50-59 6:12:30.76 12:15/M
61 HELENE STRUTKO DALLAS PA 1840 39 F 5 30-39 6:12:40.87 12:16/M
62 EMILY CLAY BALTIMORE MD 1562 28 F 1 20-29 6:13:17.78 12:17/M
63 DEAN BANKO NEW FLORENCE PA 1516 34 M 27 30-39 6:17:31.56 12:25/M
64 GREG LANGE JERSEY SHORE PA 1697 57 M 7 50-59 6:18:18.94 12:27/M
65 CHEYENNE ALBERT MORRISDALE PA 1500 28 F 2 20-29 6:19:17.55 12:29/M
66 GREGG SAUNDERS WILLIAMSPORT PA 1796 36 M 28 30-39 6:20:57.12 12:32/M
67 DAVID BECKER RIEGELSVILLE PA 1524 49 M 11 40-49 6:21:46.61 12:33/M
68 TIM FLAHERTY ALLISON PARK PA 1602 53 M 8 50-59 6:21:53.94 12:34/M
69 REED WILLAR MILL HALL PA 1877 20 M 11 20-29 6:22:19.40 12:35/M
70 SAMUEL BONIKOWSKY GREENVILLE SC 1533 26 M 12 20-29 6:22:30.57 12:35/M
71 NATHAN WALKER NORTH TONAWANDA NY 1864 42 M 12 40-49 6:22:42.61 12:35/M
72 ROB GOLDER BLOOMSBURG PA 1624 51 M 9 50-59 6:24:41.22 12:39/M
73 MATTHEW WARTA LANCASTER NY 1867 37 M 29 30-39 6:25:06.30 12:40/M
74 KRZYSZTOF JAMROZ MENTOR OH 1661 41 M 13 40-49 6:26:12.51 12:42/M
75 CHRIS CALIMANO STATEN ISLAND NY 1550 36 M 30 30-39 6:26:27.97 12:43/M
76 HEATHER PORTER WEST SUNBURY PA 1771 23 F 3 20-29 6:26:40.78 12:43/M
77 SCOTT NEWCOMER YORK PA 1745 47 M 14 40-49 6:27:00.50 12:44/M
78 GARY LONG READING PA 1707 54 M 10 50-59 6:27:47.37 12:45/M
79 JAMES CRAMER MYERSTOWN PA 1570 55 M 11 50-59 6:29:10.69 12:48/M
80 RYAN BAUMAN LANCASTER PA 1523 39 M 31 30-39 6:29:29.23 12:49/M
81 ANDREW MURPHY ARLINGTON VA 1742 33 M 32 30-39 6:29:29.44 12:49/M
82 JOSH BAHR MONTOURSVILLE PA 1511 43 M 15 40-49 6:29:31.23 12:49/M
83 LIZ FONES FOGELSVILLE PA 1605 46 F 3 40-49 6:29:34.48 12:49/M
84 NICK VERMEULEN SODUS POINT NY 1859 38 M 33 30-39 6:29:34.73 12:49/M
85 MICHAEL SCHUBACH MILL HALL PA 1803 46 M 16 40-49 6:29:36.40 12:49/M
86 VINCE RUCCI STOW OH 1792 41 M 17 40-49 6:29:43.72 12:49/M
87 BRANDON MENTZER LITITZ PA 1727 37 M 34 30-39 6:29:49.50 12:49/M
88 LORI JOHNSON RED HILL PA 1667 54 F 1 50-59 6:31:52.89 12:53/M
89 BRENT LEWIS MOUNT JOY PA 1702 47 M 18 40-49 6:32:09.97 12:54/M
90 ADAM FOLEY WILMINGTON DE 1604 38 M 35 30-39 6:32:14.83 12:54/M
91 ERIC WOELKERS BIRDSBORO PA 1881 29 M 13 20-29 6:32:47.93 12:55/M
92 MIKE ELDER THOMPSONTOWN PA 1590 48 M 19 40-49 6:32:58.92 12:56/M
93 TERESA BARNES WILLIAMSPORT PA 1518 46 F 4 40-49 6:34:22.78 12:58/M
94 MIKE COUPLAND PITTSBURGH PA 1569 36 M 36 30-39 6:34:26.68 12:58/M
95 CLINT GYORY NORTHAMPTON PA 1634 27 M 14 20-29 6:34:41.32 12:59/M
96 TOMMY DARLINGTON BUFFALO NY 1574 25 M 15 20-29 6:34:41.55 12:59/M
97 JEN GREGORIS CARLISLE PA 1629 40 F 5 40-49 6:34:54.68 12:59/M
98 KATHERINE FAIR PITTSBURGH PA 1594 25 F 4 20-29 6:35:19.64 13:00/M
99 MATTHEW CRAMER ERIE PA 1571 32 M 37 30-39 6:36:28.82 13:03/M
100 SCOTT GARMAN MILL HALL PA 1616 42 M 20 40-49 6:36:45.10 13:03/M
 
Place Name City Bib No Age Gender Age Group Total Time Pace
101 NEAL BARNABA SPRING GROVE PA 1517 39 M 38 30-39 6:36:46.52 13:03/M
102 SHERMAN LAM SCARBOROUGH ON 1694 38 M 39 30-39 6:37:32.91 13:05/M
103 TOM KAPLAN NEW PALTZ NY 1671 56 M 12 50-59 6:38:53.80 13:07/M
104 IAN LUSCHIN TWINSBURG OH 1712 41 M 21 40-49 6:39:54.31 13:09/M
105 PAUL ENCARNACION BRUNSWICK MD 1592 57 M 13 50-59 6:41:20.13 13:12/M
106 ANDREW SUMMERS DREXEL HILL PA 1841 33 M 40 30-39 6:42:07.12 13:14/M
107 JON CRAYS WARREN OH 1572 47 M 22 40-49 6:42:58.62 13:15/M
108 CHRIS KEITH MOHNTON PA 1678 38 M 41 30-39 6:43:27.86 13:16/M
109 JAMES GEHENIO CAMP HILL PA 1619 57 M 14 50-59 6:44:10.35 13:18/M
110 LINDSAY SHAFER PHILADELPHIA PA 1810 36 F 6 30-39 6:44:13.56 13:18/M
111 MATT BERTRAND ROCHESTER NY 1530 32 M 42 30-39 6:44:34.10 13:18/M
112 MARK MILLER PICTURE ROCKS PA 1731 48 M 23 40-49 6:45:49.71 13:21/M
113 CRYSTAL SHINOSKY CONCORD TWP OH 1814 47 F 6 40-49 6:46:00.73 13:21/M
114 HEATHER DOUGHERTY WASHINGTON DC 1583 32 F 7 30-39 6:46:06.25 13:22/M
115 BROOKE SCHELL LENHARTSVILLE PA 1798 47 F 7 40-49 6:46:10.51 13:22/M
116 DONALD MENGEL HAMBURG PA 1726 61 M 1 60-99 6:46:26.46 13:22/M
117 MARC GRAVATT GARDINER NY 1628 51 M 15 50-59 6:46:59.22 13:23/M
118 SHERYL WHEELER RHINEBECK NY 1873 55 F 2 50-59 6:47:58.58 13:25/M
119 MARA WHITEMAN PASADENA MD 1874 43 F 8 40-49 6:48:09.75 13:26/M
120 SAUL DUARTE ABINGDON MD 1585 57 M 16 50-59 6:48:40.56 13:27/M
121 RYAN BROWN BETHESDA MD 1543 32 M 43 30-39 6:48:51.23 13:27/M
122 HENRY PECK LUTHERVILLE MD 1764 61 M 2 60-99 6:49:51.31 13:29/M
123 CINDY BATZEL HONESDALE PA 1521 45 F 9 40-49 6:49:54.18 13:29/M
124 DON KNIGHT PITTSBURGH PA 1684 36 M 44 30-39 6:50:55.70 13:31/M
125 ROBERT CAWOOD ANNAPOLIS MD 1558 49 M 24 40-49 6:51:01.18 13:31/M
126 MICHAEL CARLSON ALEXANDRIA VA 1555 53 M 17 50-59 6:51:04.55 13:31/M
127 BENJAMIN BRUNO SANTA BARBARA CA 1544 34 M 45 30-39 6:51:15.52 13:32/M
128 ADAM MCGINNIS BEDFORD PA 1721 28 M 16 20-29 6:51:21.29 13:32/M
129 CHRIS YEAGER LOCK HAVEN PA 1884 44 M 25 40-49 6:51:35.79 13:32/M
130 KARINA GATES ORANGEVILLE PA 1617 41 F 10 40-49 6:51:44.29 13:33/M
131 APRIL ZIMMERMAN SINKING SPRING PA 1890 38 F 8 30-39 6:52:02.54 13:33/M
132 JACKIE SHULACK RARITAN NJ 1817 27 F 5 20-29 6:52:29.53 13:34/M
133 JEFF CALVERT PORT MATILDA PA 1551 52 M 18 50-59 6:54:46.64 13:39/M
134 GARRETT KERSTETTER LEWISBURG PA 1682 35 M 46 30-39 6:54:51.72 13:39/M
135 CHRISTOPHER BERTINI YORK PA 1529 31 M 47 30-39 6:54:53.56 13:39/M
136 THOMAS VINCENT EASTON PA 1861 47 M 26 40-49 6:55:16.97 13:40/M
137 TYLER KANAGY MILL HALL PA 1670 28 M 17 20-29 6:55:22.26 13:40/M
138 SERGIY CHEPYSHEV PHILADELPHIA PA 1559 35 M 48 30-39 6:55:44.91 13:41/M
139 JASON DUNSAVAGE ETTERS PA 1586 44 M 27 40-49 6:56:01.43 13:41/M
140 MICHAEL BEVILACQUA TOWSON MD 1531 33 M 49 30-39 6:56:08.25 13:41/M
141 THAD WILL PORT MATILDA PA 1876 45 M 28 40-49 6:56:36.24 13:42/M
142 TODD LEWIS ALTOONA PA 1703 43 M 29 40-49 6:57:38.74 13:44/M
143 IAN HURLEY PITTSBURGH PA 1659 39 M 50 30-39 7:00:38.97 13:50/M
144 ERIN ALTEMOS BALTIMORE MD 1504 43 M 30 40-49 7:03:50.83 13:57/M
145 STEVE PIERCE MUNROE FALLS OH 1769 52 M 19 50-59 7:04:32.93 13:58/M
146 KEITH HEARN MOUNT JOY PA 1644 41 M 31 40-49 7:07:20.77 14:03/M
147 JEREMY HAND DAUPHIN PA 1638 40 M 32 40-49 7:12:04.12 14:13/M
148 BEAU SMITH ALEXANDRIA VA 1823 31 M 51 30-39 7:12:39.56 14:14/M
149 STEPHEN SAYLOR CUMBERLAND ME 1797 48 M 33 40-49 7:13:12.44 14:15/M
150 JASON BERRY BUSHKILL PA 1528 38 M 52 30-39 7:13:13.69 14:15/M
151 JOANNE VAN HORN DOUGLASSVILLE PA 1855 53 F 3 50-59 7:13:27.54 14:15/M
152 NICOLE WERNER AMBLER PA 1872 39 F 9 30-39 7:14:13.85 14:17/M
153 MICHELLE LANDMAN ORELAND PA 1696 38 F 10 30-39 7:14:14.81 14:17/M
154 TOM KALBAUGH ALLISON PARK PA 1669 49 M 34 40-49 7:14:31.50 14:18/M
155 ANDREW STACKHOUSE ROCHESTER NY 1829 44 M 35 40-49 7:14:35.37 14:18/M
156 LAUREN PAULSON UTICA PA 1761 44 F 11 40-49 7:16:31.82 14:22/M
157 BOB SMALTZ TWINSBURG OH 1822 56 M 20 50-59 7:18:44.13 14:26/M
158 DANIEL YOUNG ERIE PA 1887 57 M 21 50-59 7:20:03.31 14:29/M
159 ERNESTAS GAIDAMAUSKAS MALVERN PA 1612 47 M 36 40-49 7:20:41.67 14:30/M
160 ALEX ROBERTS PHOENIXVILLE PA 1786 41 M 37 40-49 7:22:13.11 14:33/M
161 DUSTIN MUSSELMAN MOUNT AIRY MD 1743 29 M 18 20-29 7:23:00.15 14:34/M
162 JOHN SWANSON BROWNS MILLS NJ 1844 42 M 38 40-49 7:23:30.34 14:35/M
163 RON KAPPUS MILFORD NJ 1673 58 M 22 50-59 7:25:15.51 14:39/M
164 TODD SAILER HOLLAND PA 1795 44 M 39 40-49 7:25:24.21 14:39/M
165 RUIE BUTLER MONTOURSVILLE PA 1549 37 F 11 30-39 7:25:32.13 14:39/M
166 WILL EDGE BUFFALO NY 1589 30 M 53 30-39 7:26:14.49 14:41/M
167 ANTHONY FISHER CHAMBERSBURG PA 1601 45 M 40 40-49 7:26:28.96 14:41/M
168 GEORGE HOLLERBACH NEWTOWN PA 1655 62 M 3 60-99 7:27:00.25 14:42/M
169 MARK PEYTON CHARLES TOWN WV 1766 44 M 41 40-49 7:27:14.14 14:43/M
170 JIM HENNIGAN HARPERS FERRY WV 1648 42 M 42 40-49 7:27:15.11 14:43/M
171 CHRISTIAN KURPIEL-WAKAMIYA STATE COLLEGE PA 1692 39 M 54 30-39 7:27:43.70 14:44/M
172 DAVID WISE FLAGTOWN NJ 1880 47 M 43 40-49 7:29:26.51 14:47/M
173 NICK STAHLNECKER PITTSBURGH PA 1830 29 M 19 20-29 7:30:13.33 14:49/M
174 MATT MILLER HUNTERSVILLE NC 1732 45 M 44 40-49 7:30:18.47 14:49/M
175 MAX BEITZEL MCHENRY MD 1526 30 M 55 30-39 7:31:11.39 14:50/M
176 PATRICK SACHSE ALTOONA PA 1794 34 M 56 30-39 7:32:19.44 14:53/M
177 KIRAN KOONS WEST CHESTER PA 1688 44 F 12 40-49 7:33:28.47 14:55/M
178 CANDIE BATES MAYFIELD VILLAGE OH 1520 47 F 13 40-49 7:33:31.69 14:55/M
179 JONATHAN NICHOLSON POTTSTOWN PA 1747 45 M 45 40-49 7:33:53.44 14:56/M
180 MICHAEL RANCK DEER LAKE PA 1775 67 M 4 60-99 7:34:11.41 14:56/M
181 WILL FOX TRUMANSBURG NY 1607 42 M 46 40-49 7:35:04.43 14:58/M
182 JOEL STROUSE LOGANTON PA 1839 48 M 47 40-49 7:36:26.43 15:01/M
183 AZAM POULATOV BROOKLYN NY 1772 41 M 48 40-49 7:36:55.54 15:02/M
184 GARY FRIESE WAYNESBORO PA 1610 50 M 23 50-59 7:37:43.66 15:03/M
185 STEPHANE BOUDREAULT TERREBONNE QC 1534 42 M 49 40-49 7:37:50.87 15:04/M
186 JEREMY TROUT DENVER PA 1852 47 M 50 40-49 7:39:42.22 15:07/M
187 DANIELLE BARNEY LOCK HAVEN PA 1519 42 F 14 40-49 7:40:28.64 15:09/M
188 MICHAEL JAY BERNVILLE PA 1664 30 M 57 30-39 7:41:55.13 15:12/M
189 JOHN METZGER NAZARETH PA 1728 42 M 51 40-49 7:42:04.87 15:12/M
190 BENJAMIN MAZUR GALLITZIN PA 1718 45 M 52 40-49 7:45:07.95 15:18/M
191 JAMES TERRIBILINI WAVERLY NY 1845 34 M 58 30-39 7:46:38.96 15:21/M
192 JACE DENDOR BUFFALO NY 1579 25 M 20 20-29 7:48:40.57 15:25/M
193 LISA GESUALDO BEL AIR MD 1621 48 F 15 40-49 7:50:50.65 15:29/M
194 FRANCESCA MAHALAK READING PA 1714 42 F 16 40-49 7:51:01.30 15:30/M
195 ROB WAEGER COLUMBUS OH 1863 42 M 53 40-49 7:51:07.55 15:30/M
196 ASHLEY WEAVER BALTIMORE MD 1869 28 F 6 20-29 7:51:50.71 15:31/M
197 DAVID ROBART BALTIMORE MD 1785 32 M 59 30-39 7:51:50.91 15:31/M
198 PHIL ORNDORFF OAKVILLE ON 1756 44 M 54 40-49 7:53:09.92 15:34/M
199 JOSEPH HESS MOUNT JOY PA 1651 41 M 55 40-49 7:53:20.78 15:34/M
200 JACKSON MORRIS LEWISBURG PA 1737 40 M 56 40-49 7:53:47.27 15:35/M
 
Place Name City Bib No Age Gender Age Group Total Time Pace
201 DON RILEY PHOENIX MD 1784 54 M 24 50-59 7:54:00.28 15:36/M
202 SCOTT SCHWEIGERT WYOMISSING PA 1806 39 M 60 30-39 7:54:02.27 15:36/M
203 MATT FREMON AKRON OH 1609 47 M 57 40-49 7:54:52.52 15:37/M
204 MICHAEL KELLY PITTSBURGH PA 1679 35 M 61 30-39 7:55:09.66 15:38/M
205 THOMAS ULEWICZ SAXONBURG PA 1854 44 M 58 40-49 7:55:09.66 15:38/M
206 ANGEL BURD HUNTINGDON PA 1546 33 F 12 30-39 7:56:47.26 15:41/M
207 MARIA CAMPOS NEW YORK NY 1554 39 F 13 30-39 7:57:29.95 15:42/M
208 JILL STOLINS CHELSEA QC 1836 51 F 4 50-59 7:57:41.13 15:43/M
209 DAWID BRATKO INDEPENDENCE OH 1538 21 M 21 20-29 7:59:04.39 15:46/M
210 RICHARD SCHLENK SHAKER HEIGHTS OH 1799 50 M 25 50-59 7:59:58.72 15:47/M
211 LEO OCONNOR FALCONER NY 1751 50 M 26 50-59 8:00:33.72 15:48/M
212 MANUEL RAMOS HARPES FERRY WV 1774 51 M 27 50-59 8:00:46.18 15:49/M
213 KATRINA RODRIGUEZ BALTIMORE MD 1789 37 F 14 30-39 8:01:27.34 15:50/M
214 MISTY TROWBRIDGE LOCK HAVEN PA 1853 37 F 15 30-39 8:01:46.84 15:51/M
215 CHAD WOODRUFF MICKLETON NJ 1882 35 M 62 30-39 8:03:09.69 15:54/M
216 JENNIFER SEALE BERNVILLE PA 1807 49 F 17 40-49 8:03:35.79 15:54/M
217 JEFF BAUER CHELTENHAM PA 1522 41 M 59 40-49 8:05:33.24 15:58/M
218 RONALD ROSS MEDINA OH 1790 59 M 28 50-59 8:06:34.67 16:00/M
219 DEBRA RIEUTORT LAKE ARIEL PA 1783 59 F 5 50-59 8:07:40.41 16:03/M
220 JESSE KEENAN PHILADELPHIA PA 1676 40 M 60 40-49 8:10:54.22 16:09/M
221 KEITH MUN FAIRFAX VA 1739 50 M 29 50-59 8:11:38.38 16:10/M
222 MICHAEL HATT JERSEY SHORE PA 1641 37 M 63 30-39 8:12:14.17 16:12/M
223 MERRILL SHOWERS NEW COLUMBIA PA 1816 56 M 30 50-59 8:12:19.91 16:12/M
224 SUSAN BUESING PERKASIE PA 1545 44 F 18 40-49 8:13:25.86 16:14/M
225 ANDREA RICCIARDI SELLERSVILLE PA 1782 42 F 19 40-49 8:13:26.10 16:14/M
226 SERGEY NIZHEGORODTSEV EDGEWATER NJ 1749 41 M 61 40-49 8:19:00.44 16:25/M
227 ANDREW MCGOWAN BALTIMORE MD 1722 30 M 64 30-39 8:26:02.72 16:39/M
228 JULIA LIPELES MICKLETON NJ 1705 43 F 20 40-49 8:27:33.35 16:42/M
229 JUSTIN FLICKINGER MECHANICSBURG PA 1603 38 M 65 30-39 8:32:34.95 16:52/M
230 GREGG HOLST NEWTOWN PA 1656 59 M 31 50-59 8:34:21.17 16:55/M
231 ANGELA GRIFFIS LANGHORNE PA 1630 56 F 6 50-59 8:37:10.16 17:01/M
232 MICHAEL REINHART WYOMISSING PA 1779 40 M 62 40-49 8:38:07.26 17:03/M
233 SIRISHA GOLLA ASHBURN VA 1625 41 F 21 40-49 8:40:08.19 17:07/M
234 MERANDA PIERCE MOUNT JOY PA 1767 43 F 22 40-49 8:44:10.29 17:15/M
235 LAURA BOWMAN LANCASTER PA 1536 24 F 7 20-29 8:44:10.60 17:15/M
236 GARY BOWMAN CONESTOGA PA 1535 52 M 32 50-59 8:44:10.85 17:15/M
237 GARY JANAS KIRTLAND OH 1662 51 M 33 50-59 8:44:33.51 17:15/M
238 LINDSEY BOYCE PHENIX CITY AL 1537 37 F 16 30-39 8:45:07.31 17:16/M
239 DONALD HALKE II NEWPORT PA 1636 59 M 34 50-59 8:50:45.72 17:28/M
240 JANICE HARTKORN HOLLIDAYSBURG PA 1640 40 F 23 40-49 8:54:52.46 17:36/M
241 ALAN DYKE PHILADELPHIA PA 1587 40 M 63 40-49 8:55:24.85 17:37/M
242 LAMAR FELIX CORAOPOLIS PA 1596 35 M 66 30-39 8:56:07.50 17:38/M
243 ALEX LAUER CRANBERRY TWP PA 1699 51 M 35 50-59 8:56:08.50 17:38/M
244 JEFF FIOLEK HARPERS FERRY WV 1600 51 M 36 50-59 8:56:55.23 17:40/M
245 STEVEN GOLD SPRINGFIELD VA 1623 41 M 64 40-49 8:58:06.49 17:42/M
246 DANIEL THARP BEAVERTOWN PA 1846 52 M 37 50-59 9:01:43.16 17:49/M
247 MARC LINHARDT KILDEER IL 1704 46 M 65 40-49 9:02:13.69 17:50/M
248 MICHAEL YODER FLEETWOOD PA 1885 56 M 38 50-59 9:07:34.55 18:01/M
249 LAURA MOONEY FLEETWOOD PA 1735 49 F 24 40-49 9:07:35.41 18:01/M
250 RYAN GOVERTS ELKTON MD 1627 41 M 66 40-49 9:09:41.59 18:05/M
251 RACHEL PIERCE MOUNT JOY PA 1768 21 F 8 20-29 9:10:57.53 18:07/M
252 RAMONITA COLON AUGUSTA GA 1565 47 F 25 40-49 9:11:17.46 18:08/M
253 SEAN RESENDES KULPMONT PA 1781 48 M 67 40-49 9:16:09.59 18:18/M
254 TOM MANGAN PITTSBURGH PA 1716 51 M 39 50-59 9:16:14.84 18:18/M
255 SERGEI NEZNANOV BUFFALO NY 1746 27 M 22 20-29 9:18:06.82 18:22/M
256 MATTHEW O'MALLEY HONEY BROOK PA 1755 40 M 68 40-49 9:28:30.57 18:42/M
257 SERHOT OZTURK POTOMAC MD 1757 37 M 67 30-39 9:32:17.59 18:50/M
258 MIKE MEAGHER ELMIRA NY 1725 56 M 40 50-59 9:32:58.92 18:51/M
259 JEFF HOLBROOK CORNING NY 1654 55 M 41 50-59 9:42:21.87 19:09/M
260 TIM HARDY MARIETTA NY 1639 57 M 42 50-59 9:48:07.25 19:21/M
261 SAM WACHSMAN LANCASTER PA 1862 51 M 43 50-59 9:57:10.20 19:39/M
262 LEXI GRUM SAGAMORE HILLS OH 1633 41 F 26 40-49 10:02:03.20 19:48/M
263 MIKE STOKES SAGAMORE HILLS OH 1835 51 M 44 50-59 10:02:03.40 19:48/M
264 BOB BODKIN COOPERSBURG PA 1532 50 M 45 50-59 10:29:12.56 20:42/M
265 GERALD VILLAMAR NOTTINGHAM MD 1860 33 M 68 30-39 10:56:13.51 21:35/M
266 TOM GAMBER ABINGDON MD 1615 37 M 69 30-39 10:56:21.92 21:35/M
267 STEVE MANUEL NEWMARKET ON 1717 55 M 46 50-59 11:00:56.21 21:44/M
268 IAN CAMPBELL ORCHARD PARK NY 1552 40 M 69 40-49 11:14:32.84 22:11/M